Time,TemperatureF,DewpointF,PressureIn,WindDirection,WindDirectionDegrees,WindSpeedMPH,WindSpeedGustMPH,Humidity,HourlyPrecipIn,Conditions,Clouds,dailyrainin,SoftwareType,DateUTC
2013-02-24 00:00:00,17.6,15.2,30.03,SW,228,0.0,0.0,90,0.00,,,0.00,Wunderground v.1.15,2013-02-24 06:00:00,
2013-02-24 00:01:00,17.6,15.2,30.03,SW,228,0.0,0.0,90,0.00,,,0.00,Wunderground v.1.15,2013-02-24 06:01:00,
2013-02-24 00:05:00,17.4,14.7,30.02,SW,228,0.0,0.0,89,0.00,,,0.00,Wunderground v.1.15,2013-02-24 06:05:00,
2013-02-24 00:08:00,17.2,14.5,30.02,SW,228,0.0,0.0,89,0.00,,,0.00,Wunderground v.1.15,2013-02-24 06:08:00,
2013-02-24 00:09:00,17.1,14.4,30.02,SW,227,0.0,0.0,89,0.00,,,0.00,Wunderground v.1.15,2013-02-24 06:09:00,
2013-02-24 00:10:00,17.0,14.3,30.02,SW,228,0.0,0.0,89,0.00,,,0.00,Wunderground v.1.15,2013-02-24 06:10:00,
2013-02-24 00:13:00,16.9,14.2,30.02,SW,228,0.0,0.0,89,0.00,,,0.00,Wunderground v.1.15,2013-02-24 06:13:00,
2013-02-24 00:14:00,16.8,14.1,30.03,SW,228,0.0,0.0,89,0.00,,,0.00,Wunderground v.1.15,2013-02-24 06:14:00,
2013-02-24 00:19:00,16.6,13.9,30.03,SW,228,0.0,0.0,89,0.00,,,0.00,Wunderground v.1.15,2013-02-24 06:19:00,
2013-02-24 00:22:00,16.6,13.9,30.03,SW,228,0.0,0.0,89,0.00,,,0.00,Wunderground v.1.15,2013-02-24 06:22:00,
2013-02-24 00:25:00,16.6,13.9,30.03,SW,228,0.0,0.0,89,0.00,,,0.00,Wunderground v.1.15,2013-02-24 06:25:00,
2013-02-24 00:26:00,16.6,13.9,30.03,SW,228,0.0,0.0,89,0.00,,,0.00,Wunderground v.1.15,2013-02-24 06:26:00,
2013-02-24 00:30:00,16.4,13.7,30.03,SW,228,0.0,0.0,89,0.00,,,0.00,Wunderground v.1.15,2013-02-24 06:30:00,
2013-02-24 00:31:00,16.3,13.6,30.03,SW,228,0.0,0.0,89,0.00,,,0.00,Wunderground v.1.15,2013-02-24 06:31:00,
2013-02-24 00:35:00,16.2,13.5,30.03,SW,228,0.0,0.0,89,0.00,,,0.00,Wunderground v.1.15,2013-02-24 06:35:00,
2013-02-24 00:36:00,16.2,13.5,30.04,SW,228,0.0,0.0,89,0.00,,,0.00,Wunderground v.1.15,2013-02-24 06:36:00,
2013-02-24 00:39:00,16.1,13.4,30.04,SW,228,0.0,0.0,89,0.00,,,0.00,Wunderground v.1.15,2013-02-24 06:39:00,
2013-02-24 00:40:00,16.1,13.4,30.04,SW,228,0.0,0.0,89,0.00,,,0.00,Wunderground v.1.15,2013-02-24 06:40:00,
2013-02-24 00:41:00,16.1,13.7,30.04,SW,228,0.0,0.0,90,0.00,,,0.00,Wunderground v.1.15,2013-02-24 06:41:00,
2013-02-24 00:44:00,16.3,13.9,30.04,SW,228,0.0,0.0,90,0.00,,,0.00,Wunderground v.1.15,2013-02-24 06:44:00,
2013-02-24 00:47:00,16.5,14.3,30.04,SW,228,0.0,0.0,91,0.00,,,0.00,Wunderground v.1.15,2013-02-24 06:47:00,
2013-02-24 00:48:00,16.5,14.3,30.04,SW,228,0.0,0.0,91,0.00,,,0.00,Wunderground v.1.15,2013-02-24 06:48:00,
2013-02-24 00:51:00,16.5,14.3,30.04,SW,228,0.0,0.0,91,0.00,,,0.00,Wunderground v.1.15,2013-02-24 06:51:00,
2013-02-24 00:52:00,16.4,14.0,30.04,SW,228,0.0,0.0,90,0.00,,,0.00,Wunderground v.1.15,2013-02-24 06:52:00,
2013-02-24 00:53:00,16.3,13.9,30.04,SW,228,0.0,0.0,90,0.00,,,0.00,Wunderground v.1.15,2013-02-24 06:53:00,
2013-02-24 00:56:00,16.1,13.7,30.05,SW,228,0.0,0.0,90,0.00,,,0.00,Wunderground v.1.15,2013-02-24 06:56:00,
2013-02-24 00:57:00,16.0,13.6,30.05,SW,228,0.0,0.0,90,0.00,,,0.00,Wunderground v.1.15,2013-02-24 06:57:00,
2013-02-24 00:58:00,15.9,13.2,30.05,SW,228,0.0,0.0,89,0.00,,,0.00,Wunderground v.1.15,2013-02-24 06:58:00,
2013-02-24 01:01:00,15.7,13.3,30.05,SW,228,0.0,0.0,90,0.00,,,0.00,Wunderground v.1.15,2013-02-24 07:01:00,
2013-02-24 01:04:00,15.8,13.6,30.05,SW,228,0.0,0.0,91,0.00,,,0.00,Wunderground v.1.15,2013-02-24 07:04:00,
2013-02-24 01:06:00,16.0,13.8,30.05,SW,228,0.0,0.0,91,0.00,,,0.00,Wunderground v.1.15,2013-02-24 07:06:00,
2013-02-24 01:07:00,16.2,14.0,30.05,SW,228,0.0,0.0,91,0.00,,,0.00,Wunderground v.1.15,2013-02-24 07:07:00,
2013-02-24 01:10:00,16.3,14.1,30.05,SW,229,0.0,0.0,91,0.00,,,0.00,Wunderground v.1.15,2013-02-24 07:10:00,
2013-02-24 01:11:00,16.4,14.2,30.05,SW,229,0.0,0.0,91,0.00,,,0.00,Wunderground v.1.15,2013-02-24 07:11:00,
2013-02-24 01:12:00,16.4,14.2,30.05,SW,229,0.0,0.0,91,0.00,,,0.00,Wunderground v.1.15,2013-02-24 07:12:00,
2013-02-24 01:14:00,16.4,14.2,30.05,SW,229,0.0,0.0,91,0.00,,,0.00,Wunderground v.1.15,2013-02-24 07:14:00,
2013-02-24 01:15:00,16.3,14.1,30.05,SW,229,0.0,0.0,91,0.00,,,0.00,Wunderground v.1.15,2013-02-24 07:15:00,
2013-02-24 01:17:00,16.0,13.8,30.04,SW,229,0.0,0.0,91,0.00,,,0.00,Wunderground v.1.15,2013-02-24 07:17:00,
2013-02-24 01:20:00,15.2,12.5,30.04,SW,229,0.0,0.0,89,0.00,,,0.00,Wunderground v.1.15,2013-02-24 07:20:00,
2013-02-24 01:21:00,15.0,12.3,30.04,SW,228,0.0,0.0,89,0.00,,,0.00,Wunderground v.1.15,2013-02-24 07:21:00,
2013-02-24 01:22:00,14.9,12.2,30.04,SW,229,0.0,0.0,89,0.00,,,0.00,Wunderground v.1.15,2013-02-24 07:22:00,
2013-02-24 01:24:00,14.7,12.0,30.05,SW,229,0.0,0.0,89,0.00,,,0.00,Wunderground v.1.15,2013-02-24 07:24:00,
2013-02-24 01:27:00,14.7,12.3,30.05,SW,229,0.0,0.0,90,0.00,,,0.00,Wunderground v.1.15,2013-02-24 07:27:00,
2013-02-24 01:28:00,14.7,12.3,30.05,SW,229,0.0,0.0,90,0.00,,,0.00,Wunderground v.1.15,2013-02-24 07:28:00,
2013-02-24 01:29:00,14.8,12.6,30.05,SW,229,0.0,0.0,91,0.00,,,0.00,Wunderground v.1.15,2013-02-24 07:29:00,
2013-02-24 01:30:00,14.8,12.6,30.05,SW,228,0.0,0.0,91,0.00,,,0.00,Wunderground v.1.15,2013-02-24 07:30:00,
2013-02-24 01:32:00,14.8,12.6,30.05,SW,229,0.0,0.0,91,0.00,,,0.00,Wunderground v.1.15,2013-02-24 07:32:00,
2013-02-24 01:37:00,14.6,12.2,30.05,SW,229,0.0,0.0,90,0.00,,,0.00,Wunderground v.1.15,2013-02-24 07:37:00,
2013-02-24 01:38:00,14.5,12.1,30.05,SW,229,0.0,0.0,90,0.00,,,0.00,Wunderground v.1.15,2013-02-24 07:38:00,
2013-02-24 01:39:00,14.6,12.5,30.06,SW,229,0.0,0.0,91,0.00,,,0.00,Wunderground v.1.15,2013-02-24 07:39:00,
2013-02-24 01:42:00,15.0,13.1,30.06,WSW,242,0.0,0.0,92,0.00,,,0.00,Wunderground v.1.15,2013-02-24 07:42:00,
2013-02-24 01:44:00,14.9,12.7,30.05,WSW,242,0.0,0.0,91,0.00,,,0.00,Wunderground v.1.15,2013-02-24 07:44:00,
2013-02-24 01:45:00,14.9,12.7,30.05,WSW,242,0.0,0.0,91,0.00,,,0.00,Wunderground v.1.15,2013-02-24 07:45:00,
2013-02-24 01:46:00,14.8,12.6,30.05,WSW,242,0.0,0.0,91,0.00,,,0.00,Wunderground v.1.15,2013-02-24 07:46:00,
2013-02-24 01:49:00,14.6,12.2,30.05,WSW,242,0.0,0.0,90,0.00,,,0.00,Wunderground v.1.15,2013-02-24 07:49:00,
2013-02-24 01:51:00,14.5,12.4,30.05,WSW,242,0.0,0.0,91,0.00,,,0.00,Wunderground v.1.15,2013-02-24 07:51:00,
2013-02-24 01:55:00,14.3,11.9,30.05,WSW,243,0.0,0.0,90,0.00,,,0.00,Wunderground v.1.15,2013-02-24 07:55:00,
2013-02-24 01:57:00,14.1,11.7,30.05,WSW,242,0.0,0.0,90,0.00,,,0.00,Wunderground v.1.15,2013-02-24 07:57:00,
2013-02-24 02:01:00,14.0,11.6,30.05,WSW,242,0.0,0.0,90,0.00,,,0.00,Wunderground v.1.15,2013-02-24 08:01:00,
2013-02-24 02:02:00,13.9,11.5,30.05,WSW,242,0.0,0.0,90,0.00,,,0.00,Wunderground v.1.15,2013-02-24 08:02:00,
2013-02-24 02:05:00,14.0,11.6,30.05,WSW,242,0.0,0.0,90,0.00,,,0.00,Wunderground v.1.15,2013-02-24 08:05:00,
2013-02-24 02:07:00,14.1,12.0,30.05,WSW,242,0.0,0.0,91,0.00,,,0.00,Wunderground v.1.15,2013-02-24 08:07:00,
2013-02-24 02:09:00,14.1,12.0,30.05,WSW,242,0.0,0.0,91,0.00,,,0.00,Wunderground v.1.15,2013-02-24 08:09:00,
2013-02-24 02:10:00,14.1,12.0,30.05,WSW,242,0.0,0.0,91,0.00,,,0.00,Wunderground v.1.15,2013-02-24 08:10:00,
2013-02-24 02:12:00,14.2,12.1,30.05,WSW,243,0.0,0.0,91,0.00,,,0.00,Wunderground v.1.15,2013-02-24 08:12:00,
2013-02-24 02:15:00,14.3,12.4,30.05,WSW,242,0.0,0.0,92,0.00,,,0.00,Wunderground v.1.15,2013-02-24 08:15:00,
2013-02-24 02:17:00,14.4,12.5,30.05,WSW,242,0.0,0.0,92,0.00,,,0.00,Wunderground v.1.15,2013-02-24 08:17:00,
2013-02-24 02:20:00,14.3,12.2,30.05,WSW,243,0.0,0.0,91,0.00,,,0.00,Wunderground v.1.15,2013-02-24 08:20:00,
2013-02-24 02:22:00,14.2,12.1,30.05,WSW,242,0.0,0.0,91,0.00,,,0.00,Wunderground v.1.15,2013-02-24 08:22:00,
2013-02-24 02:25:00,14.0,11.9,30.05,WSW,242,0.0,0.0,91,0.00,,,0.00,Wunderground v.1.15,2013-02-24 08:25:00,
2013-02-24 02:26:00,14.0,11.9,30.05,WSW,242,0.0,0.0,91,0.00,,,0.00,Wunderground v.1.15,2013-02-24 08:26:00,
2013-02-24 02:30:00,14.3,12.2,30.05,WSW,242,0.0,0.0,91,0.00,,,0.00,Wunderground v.1.15,2013-02-24 08:30:00,
2013-02-24 02:31:00,14.3,12.2,30.05,WSW,243,0.0,0.0,91,0.00,,,0.00,Wunderground v.1.15,2013-02-24 08:31:00,
2013-02-24 02:32:00,14.3,12.2,30.05,WSW,242,0.0,0.0,91,0.00,,,0.00,Wunderground v.1.15,2013-02-24 08:32:00,
2013-02-24 02:36:00,14.2,12.1,30.05,WSW,243,0.0,0.0,91,0.00,,,0.00,Wunderground v.1.15,2013-02-24 08:36:00,
2013-02-24 02:37:00,14.3,12.2,30.05,WSW,242,0.0,0.0,91,0.00,,,0.00,Wunderground v.1.15,2013-02-24 08:37:00,
2013-02-24 02:38:00,14.3,12.2,30.05,WSW,242,0.0,0.0,91,0.00,,,0.00,Wunderground v.1.15,2013-02-24 08:38:00,
2013-02-24 02:39:00,14.3,12.2,30.05,WSW,242,0.0,0.0,91,0.00,,,0.00,Wunderground v.1.15,2013-02-24 08:39:00,
2013-02-24 02:42:00,14.3,12.2,30.05,WSW,242,0.0,0.0,91,0.00,,,0.00,Wunderground v.1.15,2013-02-24 08:42:00,
2013-02-24 02:43:00,14.3,12.2,30.04,WSW,242,0.0,0.0,91,0.00,,,0.00,Wunderground v.1.15,2013-02-24 08:43:00,
2013-02-24 02:44:00,14.2,12.1,30.05,WSW,243,0.0,0.0,91,0.00,,,0.00,Wunderground v.1.15,2013-02-24 08:44:00,
2013-02-24 02:48:00,14.0,11.9,30.05,WSW,242,0.0,0.0,91,0.00,,,0.00,Wunderground v.1.15,2013-02-24 08:48:00,
2013-02-24 02:50:00,14.0,11.9,30.05,WSW,242,0.0,0.0,91,0.00,,,0.00,Wunderground v.1.15,2013-02-24 08:50:00,
2013-02-24 02:51:00,13.9,11.8,30.05,WSW,243,0.0,0.0,91,0.00,,,0.00,Wunderground v.1.15,2013-02-24 08:51:00,
2013-02-24 02:54:00,14.0,11.9,30.05,WSW,242,0.0,0.0,91,0.00,,,0.00,Wunderground v.1.15,2013-02-24 08:54:00,
2013-02-24 02:59:00,13.8,11.7,30.05,WSW,242,0.0,0.0,91,0.00,,,0.00,Wunderground v.1.15,2013-02-24 08:59:00,
2013-02-24 03:00:00,13.8,11.7,30.05,WSW,243,0.0,0.0,91,0.00,,,0.00,Wunderground v.1.15,2013-02-24 09:00:00,
2013-02-24 03:05:00,13.8,11.9,30.05,WSW,243,0.0,0.0,92,0.00,,,0.00,Wunderground v.1.15,2013-02-24 09:05:00,
2013-02-24 03:06:00,13.8,11.9,30.05,WSW,242,0.0,0.0,92,0.00,,,0.00,Wunderground v.1.15,2013-02-24 09:06:00,
2013-02-24 03:09:00,13.7,11.8,30.05,WSW,242,0.0,0.0,92,0.00,,,0.00,Wunderground v.1.15,2013-02-24 09:09:00,
2013-02-24 03:11:00,13.6,11.7,30.05,WSW,242,0.0,0.0,92,0.00,,,0.00,Wunderground v.1.15,2013-02-24 09:11:00,
2013-02-24 03:12:00,13.6,11.7,30.05,WSW,242,0.0,0.0,92,0.00,,,0.00,Wunderground v.1.15,2013-02-24 09:12:00,
2013-02-24 03:13:00,13.6,11.7,30.05,WSW,243,0.0,0.0,92,0.00,,,0.00,Wunderground v.1.15,2013-02-24 09:13:00,
2013-02-24 03:14:00,13.6,11.7,30.05,WSW,242,0.0,0.0,92,0.00,,,0.00,Wunderground v.1.15,2013-02-24 09:14:00,
2013-02-24 03:18:00,13.3,11.2,30.05,WSW,242,0.0,0.0,91,0.00,,,0.00,Wunderground v.1.15,2013-02-24 09:18:00,
2013-02-24 03:19:00,13.3,11.2,30.05,WSW,243,0.0,0.0,91,0.00,,,0.00,Wunderground v.1.15,2013-02-24 09:19:00,
2013-02-24 03:21:00,13.3,11.2,30.05,WSW,243,0.0,0.0,91,0.00,,,0.00,Wunderground v.1.15,2013-02-24 09:21:00,
2013-02-24 03:23:00,13.2,11.1,30.05,WSW,242,0.0,0.0,91,0.00,,,0.00,Wunderground v.1.15,2013-02-24 09:23:00,
2013-02-24 03:24:00,13.2,11.1,30.05,WSW,243,0.0,0.0,91,0.00,,,0.00,Wunderground v.1.15,2013-02-24 09:24:00,
2013-02-24 03:26:00,13.3,11.2,30.05,WSW,242,0.0,0.0,91,0.00,,,0.00,Wunderground v.1.15,2013-02-24 09:26:00,
2013-02-24 03:29:00,13.4,11.5,30.05,WSW,242,0.0,0.0,92,0.00,,,0.00,Wunderground v.1.15,2013-02-24 09:29:00,
2013-02-24 03:31:00,13.6,11.7,30.05,WSW,242,0.0,0.0,92,0.00,,,0.00,Wunderground v.1.15,2013-02-24 09:31:00,
2013-02-24 03:33:00,13.6,11.7,30.05,WSW,242,0.0,0.0,92,0.00,,,0.00,Wunderground v.1.15,2013-02-24 09:33:00,
2013-02-24 03:35:00,13.6,11.7,30.05,WSW,242,0.0,0.0,92,0.00,,,0.00,Wunderground v.1.15,2013-02-24 09:35:00,
2013-02-24 03:36:00,13.6,11.7,30.05,WSW,242,0.0,0.0,92,0.00,,,0.00,Wunderground v.1.15,2013-02-24 09:36:00,
2013-02-24 03:38:00,13.7,11.8,30.05,WSW,242,0.0,0.0,92,0.00,,,0.00,Wunderground v.1.15,2013-02-24 09:38:00,
2013-02-24 03:41:00,13.9,12.0,30.05,WSW,242,0.0,0.0,92,0.00,,,0.00,Wunderground v.1.15,2013-02-24 09:41:00,
2013-02-24 03:42:00,14.0,12.1,30.05,WSW,243,0.0,0.0,92,0.00,,,0.00,Wunderground v.1.15,2013-02-24 09:42:00,
2013-02-24 03:43:00,14.1,12.2,30.05,WSW,243,0.0,0.0,92,0.00,,,0.00,Wunderground v.1.15,2013-02-24 09:43:00,
2013-02-24 03:46:00,14.1,12.2,30.05,WSW,242,0.0,0.0,92,0.00,,,0.00,Wunderground v.1.15,2013-02-24 09:46:00,
2013-02-24 03:47:00,14.1,12.2,30.05,WSW,242,0.0,0.0,92,0.00,,,0.00,Wunderground v.1.15,2013-02-24 09:47:00,
2013-02-24 03:50:00,14.1,12.2,30.05,WSW,243,0.0,0.0,92,0.00,,,0.00,Wunderground v.1.15,2013-02-24 09:50:00,
2013-02-24 03:52:00,14.0,12.1,30.05,WSW,242,0.0,0.0,92,0.00,,,0.00,Wunderground v.1.15,2013-02-24 09:52:00,
2013-02-24 03:53:00,14.0,12.1,30.06,WSW,242,0.0,0.0,92,0.00,,,0.00,Wunderground v.1.15,2013-02-24 09:53:00,
2013-02-24 03:56:00,13.8,11.9,30.06,WSW,243,0.0,0.0,92,0.00,,,0.00,Wunderground v.1.15,2013-02-24 09:56:00,
2013-02-24 03:58:00,13.8,11.9,30.06,WSW,242,0.0,0.0,92,0.00,,,0.00,Wunderground v.1.15,2013-02-24 09:58:00,
2013-02-24 03:59:00,13.8,11.9,30.06,WSW,242,0.0,0.0,92,0.00,,,0.00,Wunderground v.1.15,2013-02-24 09:59:00,
2013-02-24 04:03:00,13.7,11.8,30.05,WSW,243,0.0,0.0,92,0.00,,,0.00,Wunderground v.1.15,2013-02-24 10:03:00,
2013-02-24 04:04:00,13.6,11.7,30.05,WSW,242,0.0,0.0,92,0.00,,,0.00,Wunderground v.1.15,2013-02-24 10:04:00,
2013-02-24 04:05:00,13.6,11.7,30.05,WSW,242,0.0,0.0,92,0.00,,,0.00,Wunderground v.1.15,2013-02-24 10:05:00,
2013-02-24 04:06:00,13.6,11.7,30.05,WSW,242,0.0,0.0,92,0.00,,,0.00,Wunderground v.1.15,2013-02-24 10:06:00,
2013-02-24 04:08:00,13.6,11.7,30.06,WSW,242,0.0,0.0,92,0.00,,,0.00,Wunderground v.1.15,2013-02-24 10:08:00,
2013-02-24 04:10:00,13.6,11.7,30.06,WSW,242,0.0,0.0,92,0.00,,,0.00,Wunderground v.1.15,2013-02-24 10:10:00,
2013-02-24 04:11:00,13.6,11.7,30.06,WSW,243,0.0,0.0,92,0.00,,,0.00,Wunderground v.1.15,2013-02-24 10:11:00,
2013-02-24 04:14:00,13.7,11.8,30.06,WSW,242,0.0,0.0,92,0.00,,,0.00,Wunderground v.1.15,2013-02-24 10:14:00,
2013-02-24 04:16:00,13.8,11.9,30.06,WSW,242,0.0,0.0,92,0.00,,,0.00,Wunderground v.1.15,2013-02-24 10:16:00,
2013-02-24 04:19:00,13.7,11.8,30.06,WSW,242,0.0,0.0,92,0.00,,,0.00,Wunderground v.1.15,2013-02-24 10:19:00,
2013-02-24 04:20:00,13.7,11.8,30.06,WSW,242,0.0,0.0,92,0.00,,,0.00,Wunderground v.1.15,2013-02-24 10:20:00,
2013-02-24 04:21:00,13.7,11.8,30.06,WSW,243,0.0,0.0,92,0.00,,,0.00,Wunderground v.1.15,2013-02-24 10:21:00,
2013-02-24 04:22:00,13.8,11.9,30.06,WSW,243,0.0,0.0,92,0.00,,,0.00,Wunderground v.1.15,2013-02-24 10:22:00,
2013-02-24 04:25:00,13.9,12.0,30.06,WSW,242,0.0,0.0,92,0.00,,,0.00,Wunderground v.1.15,2013-02-24 10:25:00,
2013-02-24 04:28:00,13.9,12.0,30.06,WSW,242,0.0,0.0,92,0.00,,,0.00,Wunderground v.1.15,2013-02-24 10:28:00,
2013-02-24 04:29:00,13.9,12.0,30.07,WSW,242,0.0,0.0,92,0.00,,,0.00,Wunderground v.1.15,2013-02-24 10:29:00,
2013-02-24 04:30:00,14.0,12.1,30.07,WSW,243,0.0,0.0,92,0.00,,,0.00,Wunderground v.1.15,2013-02-24 10:30:00,
2013-02-24 04:32:00,13.9,12.0,30.06,WSW,242,0.0,0.0,92,0.00,,,0.00,Wunderground v.1.15,2013-02-24 10:32:00,
2013-02-24 04:33:00,14.0,12.1,30.07,WSW,242,0.0,0.0,92,0.00,,,0.00,Wunderground v.1.15,2013-02-24 10:33:00,
2013-02-24 04:34:00,14.0,12.1,30.07,WSW,242,0.0,0.0,92,0.00,,,0.00,Wunderground v.1.15,2013-02-24 10:34:00,
2013-02-24 04:37:00,13.9,12.0,30.07,WSW,242,0.0,0.0,92,0.00,,,0.00,Wunderground v.1.15,2013-02-24 10:37:00,
2013-02-24 04:38:00,13.9,12.0,30.07,WSW,243,0.0,0.0,92,0.00,,,0.00,Wunderground v.1.15,2013-02-24 10:38:00,
2013-02-24 04:39:00,13.9,12.0,30.07,WSW,243,0.0,0.0,92,0.00,,,0.00,Wunderground v.1.15,2013-02-24 10:39:00,
2013-02-24 04:41:00,13.8,11.9,30.07,WSW,242,0.0,0.0,92,0.00,,,0.00,Wunderground v.1.15,2013-02-24 10:41:00,
2013-02-24 04:43:00,13.9,12.0,30.07,WSW,242,0.0,0.0,92,0.00,,,0.00,Wunderground v.1.15,2013-02-24 10:43:00,
2013-02-24 04:44:00,13.9,12.0,30.08,WSW,242,0.0,0.0,92,0.00,,,0.00,Wunderground v.1.15,2013-02-24 10:44:00,
2013-02-24 04:46:00,13.9,12.0,30.08,WSW,242,0.0,0.0,92,0.00,,,0.00,Wunderground v.1.15,2013-02-24 10:46:00,
2013-02-24 04:47:00,13.8,11.9,30.08,WSW,243,0.0,0.0,92,0.00,,,0.00,Wunderground v.1.15,2013-02-24 10:47:00,
2013-02-24 04:51:00,13.7,11.8,30.08,WSW,242,0.0,0.0,92,0.00,,,0.00,Wunderground v.1.15,2013-02-24 10:51:00,
2013-02-24 04:52:00,13.8,11.9,30.08,WSW,242,0.0,0.0,92,0.00,,,0.00,Wunderground v.1.15,2013-02-24 10:52:00,
2013-02-24 04:54:00,13.9,12.0,30.08,WSW,242,0.0,0.0,92,0.00,,,0.00,Wunderground v.1.15,2013-02-24 10:54:00,
2013-02-24 04:56:00,14.0,12.1,30.08,WSW,242,0.0,0.0,92,0.00,,,0.00,Wunderground v.1.15,2013-02-24 10:56:00,
2013-02-24 04:58:00,14.0,12.1,30.08,WSW,242,0.0,0.0,92,0.00,,,0.00,Wunderground v.1.15,2013-02-24 10:58:00,
2013-02-24 04:59:00,13.9,12.0,30.08,WSW,242,0.0,0.0,92,0.00,,,0.00,Wunderground v.1.15,2013-02-24 10:59:00,
2013-02-24 05:01:00,13.8,11.9,30.08,WSW,243,0.0,0.0,92,0.00,,,0.00,Wunderground v.1.15,2013-02-24 11:01:00,
2013-02-24 05:03:00,13.8,11.9,30.08,WSW,243,0.0,0.0,92,0.00,,,0.00,Wunderground v.1.15,2013-02-24 11:03:00,
2013-02-24 05:08:00,13.7,11.8,30.08,WSW,242,0.0,0.0,92,0.00,,,0.00,Wunderground v.1.15,2013-02-24 11:08:00,
2013-02-24 05:09:00,13.7,11.8,30.08,WSW,242,0.0,0.0,92,0.00,,,0.00,Wunderground v.1.15,2013-02-24 11:09:00,
2013-02-24 05:10:00,13.6,11.7,30.08,WSW,242,0.0,0.0,92,0.00,,,0.00,Wunderground v.1.15,2013-02-24 11:10:00,
2013-02-24 05:14:00,13.5,11.6,30.08,WSW,243,0.0,0.0,92,0.00,,,0.00,Wunderground v.1.15,2013-02-24 11:14:00,
2013-02-24 05:16:00,13.6,11.7,30.08,WSW,243,0.0,0.0,92,0.00,,,0.00,Wunderground v.1.15,2013-02-24 11:16:00,
2013-02-24 05:17:00,13.6,11.7,30.08,WSW,242,0.0,0.0,92,0.00,,,0.00,Wunderground v.1.15,2013-02-24 11:17:00,
2013-02-24 05:20:00,13.6,11.7,30.08,WSW,242,0.0,0.0,92,0.00,,,0.00,Wunderground v.1.15,2013-02-24 11:20:00,
2013-02-24 05:22:00,13.6,11.7,30.08,WSW,242,0.0,0.0,92,0.00,,,0.00,Wunderground v.1.15,2013-02-24 11:22:00,
2013-02-24 05:23:00,13.6,11.7,30.08,WSW,242,0.0,0.0,92,0.00,,,0.00,Wunderground v.1.15,2013-02-24 11:23:00,
2013-02-24 05:27:00,13.4,11.5,30.08,WSW,242,0.0,0.0,92,0.00,,,0.00,Wunderground v.1.15,2013-02-24 11:27:00,
2013-02-24 05:28:00,13.3,11.4,30.09,WSW,242,0.0,0.0,92,0.00,,,0.00,Wunderground v.1.15,2013-02-24 11:28:00,
2013-02-24 05:29:00,13.2,11.3,30.09,WSW,242,0.0,0.0,92,0.00,,,0.00,Wunderground v.1.15,2013-02-24 11:29:00,
2013-02-24 05:33:00,12.7,10.6,30.08,WSW,242,0.0,0.0,91,0.00,,,0.00,Wunderground v.1.15,2013-02-24 11:33:00,
2013-02-24 05:35:00,12.4,10.3,30.08,WSW,242,0.0,0.0,91,0.00,,,0.00,Wunderground v.1.15,2013-02-24 11:35:00,
2013-02-24 05:36:00,12.4,10.3,30.08,WSW,242,0.0,0.0,91,0.00,,,0.00,Wunderground v.1.15,2013-02-24 11:36:00,
2013-02-24 05:38:00,12.3,10.2,30.08,WSW,242,0.0,0.0,91,0.00,,,0.00,Wunderground v.1.15,2013-02-24 11:38:00,
2013-02-24 05:39:00,12.3,10.2,30.08,WSW,243,0.0,0.0,91,0.00,,,0.00,Wunderground v.1.15,2013-02-24 11:39:00,
2013-02-24 05:42:00,12.1,10.0,30.08,WSW,242,0.0,0.0,91,0.00,,,0.00,Wunderground v.1.15,2013-02-24 11:42:00,
2013-02-24 05:43:00,12.0,9.9,30.09,WSW,242,0.0,0.0,91,0.00,,,0.00,Wunderground v.1.15,2013-02-24 11:43:00,
2013-02-24 05:44:00,12.0,9.9,30.08,WSW,242,0.0,0.0,91,0.00,,,0.00,Wunderground v.1.15,2013-02-24 11:44:00,
2013-02-24 05:47:00,11.8,9.7,30.08,WSW,242,0.0,0.0,91,0.00,,,0.00,Wunderground v.1.15,2013-02-24 11:47:00,
2013-02-24 05:50:00,11.7,9.6,30.08,WSW,242,0.0,0.0,91,0.00,,,0.00,Wunderground v.1.15,2013-02-24 11:50:00,
2013-02-24 05:53:00,11.6,9.5,30.09,WSW,242,0.0,0.0,91,0.00,,,0.00,Wunderground v.1.15,2013-02-24 11:53:00,
2013-02-24 05:54:00,11.6,9.5,30.09,WSW,242,0.0,0.0,91,0.00,,,0.00,Wunderground v.1.15,2013-02-24 11:54:00,
2013-02-24 05:55:00,11.6,9.5,30.09,WSW,242,0.0,0.0,91,0.00,,,0.00,Wunderground v.1.15,2013-02-24 11:55:00,
2013-02-24 05:56:00,11.6,9.5,30.09,WSW,242,0.0,0.0,91,0.00,,,0.00,Wunderground v.1.15,2013-02-24 11:56:00,
2013-02-24 06:00:00,11.5,9.4,30.08,WSW,243,0.0,0.0,91,0.00,,,0.00,Wunderground v.1.15,2013-02-24 12:00:00,
2013-02-24 06:01:00,11.5,9.4,30.09,WSW,242,0.0,0.0,91,0.00,,,0.00,Wunderground v.1.15,2013-02-24 12:01:00,
2013-02-24 06:02:00,11.5,9.4,30.09,WSW,242,0.0,0.0,91,0.00,,,0.00,Wunderground v.1.15,2013-02-24 12:02:00,
2013-02-24 06:06:00,11.3,9.2,30.09,WSW,243,0.0,0.0,91,0.00,,,0.00,Wunderground v.1.15,2013-02-24 12:06:00,
2013-02-24 06:07:00,11.3,9.2,30.09,WSW,242,0.0,0.0,91,0.00,,,0.00,Wunderground v.1.15,2013-02-24 12:07:00,
2013-02-24 06:09:00,11.3,9.2,30.09,WSW,242,0.0,0.0,91,0.00,,,0.00,Wunderground v.1.15,2013-02-24 12:09:00,
2013-02-24 06:12:00,11.3,9.2,30.09,WSW,242,0.0,0.0,91,0.00,,,0.00,Wunderground v.1.15,2013-02-24 12:12:00,
2013-02-24 06:14:00,11.4,9.3,30.09,WSW,242,0.0,0.0,91,0.00,,,0.00,Wunderground v.1.15,2013-02-24 12:14:00,
2013-02-24 06:17:00,11.4,9.3,30.09,WSW,243,0.0,0.0,91,0.00,,,0.00,Wunderground v.1.15,2013-02-24 12:17:00,
2013-02-24 06:19:00,11.4,9.3,30.09,WSW,242,0.0,0.0,91,0.00,,,0.00,Wunderground v.1.15,2013-02-24 12:19:00,
2013-02-24 06:20:00,11.4,9.3,30.09,WSW,243,0.0,0.0,91,0.00,,,0.00,Wunderground v.1.15,2013-02-24 12:20:00,
2013-02-24 06:23:00,11.4,9.3,30.09,WSW,242,0.0,0.0,91,0.00,,,0.00,Wunderground v.1.15,2013-02-24 12:23:00,
2013-02-24 06:26:00,11.3,9.2,30.09,WSW,242,0.0,0.0,91,0.00,,,0.00,Wunderground v.1.15,2013-02-24 12:26:00,
2013-02-24 06:27:00,11.3,9.2,30.09,WSW,243,0.0,0.0,91,0.00,,,0.00,Wunderground v.1.15,2013-02-24 12:27:00,
2013-02-24 06:28:00,11.3,9.2,30.09,WSW,243,0.0,0.0,91,0.00,,,0.00,Wunderground v.1.15,2013-02-24 12:28:00,
2013-02-24 06:29:00,11.2,9.1,30.09,WSW,242,0.0,0.0,91,0.00,,,0.00,Wunderground v.1.15,2013-02-24 12:29:00,
2013-02-24 06:32:00,11.4,9.3,30.09,WSW,243,0.0,0.0,91,0.00,,,0.00,Wunderground v.1.15,2013-02-24 12:32:00,
2013-02-24 06:33:00,11.4,9.3,30.09,WSW,243,0.0,0.0,91,0.00,,,0.00,Wunderground v.1.15,2013-02-24 12:33:00,
2013-02-24 06:34:00,11.4,9.3,30.09,WSW,242,0.0,0.0,91,0.00,,,0.00,Wunderground v.1.15,2013-02-24 12:34:00,
2013-02-24 06:37:00,11.4,9.3,30.10,WSW,242,0.0,0.0,91,0.00,,,0.00,Wunderground v.1.15,2013-02-24 12:37:00,
2013-02-24 06:38:00,11.4,9.3,30.10,WSW,242,0.0,0.0,91,0.00,,,0.00,Wunderground v.1.15,2013-02-24 12:38:00,
2013-02-24 06:39:00,11.3,9.2,30.10,WSW,243,0.0,0.0,91,0.00,,,0.00,Wunderground v.1.15,2013-02-24 12:39:00,
2013-02-24 06:43:00,11.1,9.0,30.10,WSW,243,0.0,0.0,91,0.00,,,0.00,Wunderground v.1.15,2013-02-24 12:43:00,
2013-02-24 06:44:00,11.1,9.0,30.10,WSW,242,0.0,0.0,91,0.00,,,0.00,Wunderground v.1.15,2013-02-24 12:44:00,
2013-02-24 06:45:00,11.1,9.0,30.10,WSW,242,0.0,0.0,91,0.00,,,0.00,Wunderground v.1.15,2013-02-24 12:45:00,
2013-02-24 06:49:00,11.1,9.0,30.10,WSW,243,0.0,0.0,91,0.00,,,0.00,Wunderground v.1.15,2013-02-24 12:49:00,
2013-02-24 06:50:00,11.1,9.0,30.10,WSW,242,0.0,0.0,91,0.00,,,0.00,Wunderground v.1.15,2013-02-24 12:50:00,
2013-02-24 06:51:00,11.1,9.0,30.10,WSW,242,0.0,0.0,91,0.00,,,0.00,Wunderground v.1.15,2013-02-24 12:51:00,
2013-02-24 06:53:00,11.1,9.0,30.11,WSW,242,0.0,0.0,91,0.00,,,0.00,Wunderground v.1.15,2013-02-24 12:53:00,
2013-02-24 06:55:00,11.1,9.0,30.11,SW,235,0.0,0.0,91,0.00,,,0.00,Wunderground v.1.15,2013-02-24 12:55:00,
2013-02-24 06:56:00,11.1,9.0,30.11,SW,235,0.0,0.0,91,0.00,,,0.00,Wunderground v.1.15,2013-02-24 12:56:00,
2013-02-24 06:59:00,10.9,8.5,30.11,SW,235,0.0,0.0,90,0.00,,,0.00,Wunderground v.1.15,2013-02-24 12:59:00,
2013-02-24 07:00:00,10.9,8.5,30.11,SW,235,0.0,0.0,90,0.00,,,0.00,Wunderground v.1.15,2013-02-24 13:00:00,
2013-02-24 07:03:00,10.7,8.3,30.11,SW,235,0.0,0.0,90,0.00,,,0.00,Wunderground v.1.15,2013-02-24 13:03:00,
2013-02-24 07:04:00,10.8,8.4,30.11,SW,235,0.0,0.0,90,0.00,,,0.00,Wunderground v.1.15,2013-02-24 13:04:00,
2013-02-24 07:06:00,11.0,8.9,30.12,SW,235,0.0,0.0,91,0.00,,,0.00,Wunderground v.1.15,2013-02-24 13:06:00,
2013-02-24 07:09:00,11.3,9.2,30.12,SW,234,0.0,0.0,91,0.00,,,0.00,Wunderground v.1.15,2013-02-24 13:09:00,
2013-02-24 07:12:00,11.5,9.4,30.12,SW,235,0.0,0.0,91,0.00,,,0.00,Wunderground v.1.15,2013-02-24 13:12:00,
2013-02-24 07:14:00,11.7,9.6,30.12,SW,235,0.0,0.0,91,0.00,,,0.00,Wunderground v.1.15,2013-02-24 13:14:00,
2013-02-24 07:15:00,11.8,9.7,30.13,SW,235,0.0,0.0,91,0.00,,,0.00,Wunderground v.1.15,2013-02-24 13:15:00,
2013-02-24 07:17:00,12.0,10.1,30.13,SW,235,0.0,0.0,92,0.00,,,0.00,Wunderground v.1.15,2013-02-24 13:17:00,
2013-02-24 07:20:00,12.3,10.4,30.13,SW,235,0.0,0.0,92,0.00,,,0.00,Wunderground v.1.15,2013-02-24 13:20:00,
2013-02-24 07:21:00,12.4,10.5,30.13,SW,235,0.0,0.0,92,0.00,,,0.00,Wunderground v.1.15,2013-02-24 13:21:00,
2013-02-24 07:22:00,12.5,10.6,30.13,SW,235,0.0,0.0,92,0.00,,,0.00,Wunderground v.1.15,2013-02-24 13:22:00,
2013-02-24 07:24:00,12.7,10.8,30.13,SW,235,0.0,0.0,92,0.00,,,0.00,Wunderground v.1.15,2013-02-24 13:24:00,
2013-02-24 07:27:00,13.0,11.1,30.13,SW,235,0.0,0.0,92,0.00,,,0.00,Wunderground v.1.15,2013-02-24 13:27:00,
2013-02-24 07:31:00,13.5,11.6,30.13,SW,235,0.0,0.0,92,0.00,,,0.00,Wunderground v.1.15,2013-02-24 13:31:00,
2013-02-24 07:32:00,13.6,11.7,30.13,SW,235,0.0,0.0,92,0.00,,,0.00,Wunderground v.1.15,2013-02-24 13:32:00,
2013-02-24 07:34:00,13.9,12.0,30.13,SW,235,0.0,0.0,92,0.00,,,0.00,Wunderground v.1.15,2013-02-24 13:34:00,
2013-02-24 07:37:00,14.4,12.5,30.13,SW,235,0.0,0.0,92,0.00,,,0.00,Wunderground v.1.15,2013-02-24 13:37:00,
2013-02-24 07:40:00,14.9,13.2,30.13,SW,236,0.0,0.0,93,0.00,,,0.00,Wunderground v.1.15,2013-02-24 13:40:00,
2013-02-24 07:41:00,15.1,13.4,30.13,SW,235,0.0,0.0,93,0.00,,,0.00,Wunderground v.1.15,2013-02-24 13:41:00,
2013-02-24 07:42:00,15.2,13.5,30.13,SW,235,0.0,0.0,93,0.00,,,0.00,Wunderground v.1.15,2013-02-24 13:42:00,
2013-02-24 07:46:00,15.6,13.7,30.14,SW,236,0.0,0.0,92,0.00,,,0.00,Wunderground v.1.15,2013-02-24 13:46:00,
2013-02-24 07:47:00,15.8,13.9,30.14,SW,235,0.0,0.0,92,0.00,,,0.00,Wunderground v.1.15,2013-02-24 13:47:00,
2013-02-24 07:49:00,15.9,14.0,30.14,SW,219,0.0,0.0,92,0.00,,,0.00,Wunderground v.1.15,2013-02-24 13:49:00,
2013-02-24 07:51:00,16.1,14.2,30.14,SW,219,0.0,0.0,92,0.00,,,0.00,Wunderground v.1.15,2013-02-24 13:51:00,
2013-02-24 07:52:00,16.2,14.3,30.15,SW,220,0.0,0.0,92,0.00,,,0.00,Wunderground v.1.15,2013-02-24 13:52:00,
2013-02-24 07:54:00,16.6,14.7,30.15,SW,219,0.0,0.0,92,0.00,,,0.00,Wunderground v.1.15,2013-02-24 13:54:00,
2013-02-24 07:57:00,17.4,15.7,30.15,SW,219,0.0,0.0,93,0.00,,,0.00,Wunderground v.1.15,2013-02-24 13:57:00,
2013-02-24 07:58:00,17.7,16.0,30.15,SW,220,0.0,0.0,93,0.00,,,0.00,Wunderground v.1.15,2013-02-24 13:58:00,
2013-02-24 07:59:00,18.0,16.3,30.15,SW,220,0.0,0.0,93,0.00,,,0.00,Wunderground v.1.15,2013-02-24 13:59:00,
2013-02-24 08:00:00,18.4,16.7,30.15,SW,219,0.0,0.0,93,0.00,,,0.00,Wunderground v.1.15,2013-02-24 14:00:00,
2013-02-24 08:02:00,18.9,17.2,30.14,SW,219,0.0,0.0,93,0.00,,,0.00,Wunderground v.1.15,2013-02-24 14:02:00,
2013-02-24 08:07:00,19.7,18.0,30.15,SSE,161,0.0,0.0,93,0.00,,,0.00,Wunderground v.1.15,2013-02-24 14:07:00,
2013-02-24 08:08:00,19.9,18.0,30.15,SSE,152,0.0,0.0,92,0.00,,,0.00,Wunderground v.1.15,2013-02-24 14:08:00,
2013-02-24 08:09:00,20.0,18.1,30.15,SSE,153,0.0,0.0,92,0.00,,,0.00,Wunderground v.1.15,2013-02-24 14:09:00,
2013-02-24 08:11:00,20.4,18.4,30.15,SSE,153,0.0,0.0,92,0.00,,,0.00,Wunderground v.1.15,2013-02-24 14:11:00,
2013-02-24 08:14:00,20.7,18.7,30.15,ESE,122,0.0,0.0,92,0.00,,,0.00,Wunderground v.1.15,2013-02-24 14:14:00,
2013-02-24 08:16:00,20.9,18.7,30.15,ESE,122,0.0,0.0,91,0.00,,,0.00,Wunderground v.1.15,2013-02-24 14:16:00,
2013-02-24 08:17:00,20.9,18.7,30.15,ESE,115,0.0,0.0,91,0.00,,,0.00,Wunderground v.1.15,2013-02-24 14:17:00,
2013-02-24 08:20:00,21.1,18.9,30.15,SE,138,0.0,0.0,91,0.00,,,0.00,Wunderground v.1.15,2013-02-24 14:20:00,
2013-02-24 08:23:00,21.5,19.0,30.15,SSE,152,0.0,0.0,90,0.00,,,0.00,Wunderground v.1.15,2013-02-24 14:23:00,
2013-02-24 08:26:00,21.8,19.3,30.15,SSW,207,0.0,0.0,90,0.00,,,0.00,Wunderground v.1.15,2013-02-24 14:26:00,
2013-02-24 08:27:00,21.8,19.1,30.15,SSW,212,0.0,3.0,89,0.00,,,0.00,Wunderground v.1.15,2013-02-24 14:27:00,
2013-02-24 08:30:00,21.7,19.0,30.15,SSE,158,1.0,3.0,89,0.00,,,0.00,Wunderground v.1.15,2013-02-24 14:30:00,
2013-02-24 08:32:00,21.9,18.9,30.15,SSE,160,1.0,3.0,88,0.00,,,0.00,Wunderground v.1.15,2013-02-24 14:32:00,
2013-02-24 08:33:00,21.9,19.2,30.15,SSE,158,2.0,3.0,89,0.00,,,0.00,Wunderground v.1.15,2013-02-24 14:33:00,
2013-02-24 08:37:00,22.5,19.7,30.15,SSE,167,2.0,3.0,89,0.00,,,0.00,Wunderground v.1.15,2013-02-24 14:37:00,
2013-02-24 08:38:00,22.7,19.7,30.15,SE,145,2.0,3.0,88,0.00,,,0.00,Wunderground v.1.15,2013-02-24 14:38:00,
2013-02-24 08:40:00,23.0,20.2,30.15,SSE,155,1.0,1.0,89,0.00,,,0.00,Wunderground v.1.15,2013-02-24 14:40:00,
2013-02-24 08:45:00,23.6,20.0,30.15,SW,218,0.0,1.0,86,0.00,,,0.00,Wunderground v.1.15,2013-02-24 14:45:00,
2013-02-24 08:46:00,23.5,19.7,30.15,SSW,210,0.0,1.0,85,0.00,,,0.00,Wunderground v.1.15,2013-02-24 14:46:00,
2013-02-24 08:49:00,23.4,19.6,30.15,SSW,200,0.0,1.0,85,0.00,,,0.00,Wunderground v.1.15,2013-02-24 14:49:00,
2013-02-24 08:51:00,23.5,19.7,30.15,SSW,204,0.0,0.0,85,0.00,,,0.00,Wunderground v.1.15,2013-02-24 14:51:00,
2013-02-24 08:55:00,23.7,19.6,30.15,WSW,240,0.0,0.0,84,0.00,,,0.00,Wunderground v.1.15,2013-02-24 14:55:00,
2013-02-24 08:56:00,23.7,19.6,30.15,SW,232,0.0,0.0,84,0.00,,,0.00,Wunderground v.1.15,2013-02-24 14:56:00,
2013-02-24 08:59:00,23.8,19.7,30.15,SW,218,0.0,0.0,84,0.00,,,0.00,Wunderground v.1.15,2013-02-24 14:59:00,
2013-02-24 09:00:00,23.9,19.8,30.16,SW,221,0.0,0.0,84,0.00,,,0.00,Wunderground v.1.15,2013-02-24 15:00:00,
2013-02-24 09:04:00,24.3,20.2,30.15,SW,233,0.0,0.0,84,0.00,,,0.00,Wunderground v.1.15,2013-02-24 15:04:00,
2013-02-24 09:07:00,24.5,20.1,30.15,SW,231,0.0,0.0,83,0.00,,,0.00,Wunderground v.1.15,2013-02-24 15:07:00,
2013-02-24 09:08:00,24.6,20.2,30.15,SW,226,0.0,0.0,83,0.00,,,0.00,Wunderground v.1.15,2013-02-24 15:08:00,
2013-02-24 09:09:00,24.6,20.2,30.15,SW,224,0.0,0.0,83,0.00,,,0.00,Wunderground v.1.15,2013-02-24 15:09:00,
2013-02-24 09:12:00,24.8,20.4,30.15,SW,225,0.0,0.0,83,0.00,,,0.00,Wunderground v.1.15,2013-02-24 15:12:00,
2013-02-24 09:13:00,25.0,20.6,30.15,SW,226,0.0,0.0,83,0.00,,,0.00,Wunderground v.1.15,2013-02-24 15:13:00,
2013-02-24 09:15:00,25.6,21.4,30.15,SW,225,0.0,0.0,84,0.00,,,0.00,Wunderground v.1.15,2013-02-24 15:15:00,
2013-02-24 09:18:00,26.5,22.3,30.15,SW,215,0.0,0.0,84,0.00,,,0.00,Wunderground v.1.15,2013-02-24 15:18:00,
2013-02-24 09:19:00,26.8,22.3,30.15,SW,215,0.0,0.0,83,0.00,,,0.00,Wunderground v.1.15,2013-02-24 15:19:00,
2013-02-24 09:20:00,26.9,22.1,30.15,SSW,198,0.0,0.0,82,0.00,,,0.00,Wunderground v.1.15,2013-02-24 15:20:00,
2013-02-24 09:21:00,27.1,22.3,30.15,SSW,200,0.0,0.0,82,0.00,,,0.00,Wunderground v.1.15,2013-02-24 15:21:00,
2013-02-24 09:25:00,27.7,22.3,30.15,SW,221,0.0,0.0,80,0.00,,,0.00,Wunderground v.1.15,2013-02-24 15:25:00,
2013-02-24 09:27:00,27.8,22.4,30.15,SSW,203,0.0,0.0,80,0.00,,,0.00,Wunderground v.1.15,2013-02-24 15:27:00,
2013-02-24 09:28:00,28.0,22.6,30.15,SSW,203,0.0,0.0,80,0.00,,,0.00,Wunderground v.1.15,2013-02-24 15:28:00,
2013-02-24 09:32:00,28.7,23.0,30.15,South,174,0.0,0.0,79,0.00,,,0.00,Wunderground v.1.15,2013-02-24 15:32:00,
2013-02-24 09:33:00,28.8,23.1,30.15,South,176,0.0,0.0,79,0.00,,,0.00,Wunderground v.1.15,2013-02-24 15:33:00,
2013-02-24 09:34:00,29.0,23.0,30.15,South,176,0.0,0.0,78,0.00,,,0.00,Wunderground v.1.15,2013-02-24 15:34:00,
2013-02-24 09:38:00,29.6,23.3,30.15,SW,225,0.0,0.0,77,0.00,,,0.00,Wunderground v.1.15,2013-02-24 15:38:00,
2013-02-24 09:39:00,29.5,22.6,30.15,WSW,239,0.0,0.0,75,0.00,,,0.00,Wunderground v.1.15,2013-02-24 15:39:00,
2013-02-24 09:41:00,29.3,22.0,30.15,WSW,237,0.0,0.0,74,0.00,,,0.00,Wunderground v.1.15,2013-02-24 15:41:00,
2013-02-24 09:42:00,29.1,21.8,30.15,WSW,248,0.0,0.0,74,0.00,,,0.00,Wunderground v.1.15,2013-02-24 15:42:00,
2013-02-24 09:45:00,28.6,21.4,30.14,WSW,243,0.0,0.0,74,0.00,,,0.00,Wunderground v.1.15,2013-02-24 15:45:00,
2013-02-24 09:47:00,28.3,21.4,30.15,WSW,255,0.0,0.0,75,0.00,,,0.00,Wunderground v.1.15,2013-02-24 15:47:00,
2013-02-24 09:48:00,28.2,21.3,30.15,WSW,242,0.0,0.0,75,0.00,,,0.00,Wunderground v.1.15,2013-02-24 15:48:00,
2013-02-24 09:51:00,28.0,21.4,30.14,West,262,0.0,0.0,76,0.00,,,0.00,Wunderground v.1.15,2013-02-24 15:51:00,
2013-02-24 09:53:00,28.0,21.4,30.14,WSW,248,0.0,0.0,76,0.00,,,0.00,Wunderground v.1.15,2013-02-24 15:53:00,
2013-02-24 09:55:00,28.0,21.4,30.15,WSW,252,0.0,0.0,76,0.00,,,0.00,Wunderground v.1.15,2013-02-24 15:55:00,
2013-02-24 09:56:00,28.0,21.4,30.15,WSW,238,0.0,0.0,76,0.00,,,0.00,Wunderground v.1.15,2013-02-24 15:56:00,
2013-02-24 09:57:00,28.0,21.4,30.15,SW,221,0.0,0.0,76,0.00,,,0.00,Wunderground v.1.15,2013-02-24 15:57:00,
2013-02-24 09:59:00,28.1,21.8,30.15,SW,224,0.0,0.0,77,0.00,,,0.00,Wunderground v.1.15,2013-02-24 15:59:00,
2013-02-24 10:04:00,28.6,22.3,30.15,WSW,253,0.0,0.0,77,0.00,,,0.00,Wunderground v.1.15,2013-02-24 16:04:00,
2013-02-24 10:06:00,28.7,22.1,30.15,WSW,252,0.0,0.0,76,0.00,,,0.00,Wunderground v.1.15,2013-02-24 16:06:00,
2013-02-24 10:07:00,28.8,22.5,30.15,WSW,256,0.0,0.0,77,0.00,,,0.00,Wunderground v.1.15,2013-02-24 16:07:00,
2013-02-24 10:09:00,29.0,22.4,30.15,SW,226,0.0,0.0,76,0.00,,,0.00,Wunderground v.1.15,2013-02-24 16:09:00,
2013-02-24 10:12:00,29.5,23.2,30.15,SSE,148,0.0,2.0,77,0.00,,,0.00,Wunderground v.1.15,2013-02-24 16:12:00,
2013-02-24 10:14:00,30.0,23.4,30.15,ENE,72,0.0,3.0,76,0.00,,,0.00,Wunderground v.1.15,2013-02-24 16:14:00,
2013-02-24 10:17:00,30.2,22.6,30.15,SSE,150,1.0,4.0,73,0.00,,,0.00,Wunderground v.1.15,2013-02-24 16:17:00,
2013-02-24 10:18:00,30.3,22.4,30.15,SE,140,1.0,4.0,72,0.00,,,0.00,Wunderground v.1.15,2013-02-24 16:18:00,
2013-02-24 10:21:00,30.5,22.5,30.15,SSE,153,2.0,3.0,72,0.00,,,0.00,Wunderground v.1.15,2013-02-24 16:21:00,
2013-02-24 10:22:00,30.6,23.0,30.15,ESE,103,2.0,3.0,73,0.00,,,0.00,Wunderground v.1.15,2013-02-24 16:22:00,
2013-02-24 10:24:00,30.6,22.6,30.15,ESE,112,3.0,3.0,72,0.00,,,0.00,Wunderground v.1.15,2013-02-24 16:24:00,
2013-02-24 10:26:00,30.7,22.7,30.15,SE,137,2.0,3.0,72,0.00,,,0.00,Wunderground v.1.15,2013-02-24 16:26:00,
2013-02-24 10:28:00,30.7,22.4,30.15,SSE,166,2.0,3.0,71,0.00,,,0.00,Wunderground v.1.15,2013-02-24 16:28:00,
2013-02-24 10:29:00,30.9,22.9,30.15,SE,125,2.0,3.0,72,0.00,,,0.00,Wunderground v.1.15,2013-02-24 16:29:00,
2013-02-24 10:30:00,31.0,23.0,30.16,East,89,1.0,1.0,72,0.00,,,0.00,Wunderground v.1.15,2013-02-24 16:30:00,
2013-02-24 10:31:00,31.1,22.8,30.16,ESE,108,1.0,1.0,71,0.00,,,0.00,Wunderground v.1.15,2013-02-24 16:31:00,
2013-02-24 10:34:00,31.4,23.1,30.15,ENE,72,1.0,4.0,71,0.00,,,0.00,Wunderground v.1.15,2013-02-24 16:34:00,
2013-02-24 10:35:00,31.4,22.7,30.16,ENE,75,1.0,4.0,70,0.00,,,0.00,Wunderground v.1.15,2013-02-24 16:35:00,
2013-02-24 10:36:00,31.4,22.7,30.15,SE,137,1.0,4.0,70,0.00,,,0.00,Wunderground v.1.15,2013-02-24 16:36:00,
2013-02-24 10:38:00,31.6,23.3,30.15,ENE,70,1.0,4.0,71,0.00,,,0.00,Wunderground v.1.15,2013-02-24 16:38:00,
2013-02-24 10:39:00,31.6,22.9,30.15,East,84,1.0,4.0,70,0.00,,,0.00,Wunderground v.1.15,2013-02-24 16:39:00,
2013-02-24 10:43:00,31.7,23.0,30.15,SE,139,0.0,4.0,70,0.00,,,0.00,Wunderground v.1.15,2013-02-24 16:43:00,
2013-02-24 10:44:00,31.7,23.0,30.15,SE,134,1.0,4.0,70,0.00,,,0.00,Wunderground v.1.15,2013-02-24 16:44:00,
2013-02-24 10:46:00,31.8,23.1,30.15,SE,130,1.0,4.0,70,0.00,,,0.00,Wunderground v.1.15,2013-02-24 16:46:00,
2013-02-24 10:49:00,32.0,23.3,30.15,SSE,153,2.0,4.0,70,0.00,,,0.00,Wunderground v.1.15,2013-02-24 16:49:00,
2013-02-24 10:50:00,32.0,23.3,30.15,SSE,154,2.0,4.0,70,0.00,,,0.00,Wunderground v.1.15,2013-02-24 16:50:00,
2013-02-24 10:54:00,32.1,23.1,30.15,East,100,3.0,4.0,69,0.00,,,0.00,Wunderground v.1.15,2013-02-24 16:54:00,
2013-02-24 10:56:00,32.2,23.2,30.15,SE,142,3.0,4.0,69,0.00,,,0.00,Wunderground v.1.15,2013-02-24 16:56:00,
2013-02-24 10:57:00,32.3,23.3,30.15,SE,132,3.0,4.0,69,0.00,,,0.00,Wunderground v.1.15,2013-02-24 16:57:00,
2013-02-24 10:59:00,32.4,23.4,30.15,SE,141,3.0,4.0,69,0.00,,,0.00,Wunderground v.1.15,2013-02-24 16:59:00,
2013-02-24 11:01:00,32.6,23.6,30.15,ESE,119,2.0,2.0,69,0.00,,,0.01,Wunderground v.1.15,2013-02-24 17:01:00,
2013-02-24 11:03:00,32.7,23.3,30.15,East,90,2.0,2.0,68,0.00,,,0.01,Wunderground v.1.15,2013-02-24 17:03:00,
2013-02-24 11:04:00,32.7,23.3,30.15,East,92,2.0,2.0,68,0.00,,,0.01,Wunderground v.1.15,2013-02-24 17:04:00,
2013-02-24 11:08:00,33.0,23.2,30.15,SE,126,1.0,2.0,67,0.00,,,0.01,Wunderground v.1.15,2013-02-24 17:08:00,
2013-02-24 11:09:00,33.1,23.3,30.15,ESE,105,1.0,3.0,67,0.00,,,0.01,Wunderground v.1.15,2013-02-24 17:09:00,
2013-02-24 11:10:00,33.1,23.3,30.15,ESE,103,1.0,2.0,67,0.00,,,0.01,Wunderground v.1.15,2013-02-24 17:10:00,
2013-02-24 11:12:00,33.1,23.7,30.15,ESE,103,1.0,2.0,68,0.00,,,0.01,Wunderground v.1.15,2013-02-24 17:12:00,
2013-02-24 11:14:00,33.3,23.9,30.15,ESE,115,1.0,2.0,68,0.00,,,0.01,Wunderground v.1.15,2013-02-24 17:14:00,
2013-02-24 11:15:00,33.4,24.0,30.15,ENE,58,1.0,2.0,68,0.00,,,0.01,Wunderground v.1.15,2013-02-24 17:15:00,
2013-02-24 11:19:00,33.6,23.8,30.15,ESE,115,2.0,4.0,67,0.00,,,0.01,Wunderground v.1.15,2013-02-24 17:19:00,
2013-02-24 11:20:00,33.5,23.7,30.15,ENE,61,2.0,2.0,67,0.00,,,0.01,Wunderground v.1.15,2013-02-24 17:20:00,
2013-02-24 11:21:00,33.5,23.7,30.15,East,100,1.0,2.0,67,0.00,,,0.01,Wunderground v.1.15,2013-02-24 17:21:00,
2013-02-24 11:25:00,33.7,23.9,30.15,SE,129,2.0,4.0,67,0.00,,,0.01,Wunderground v.1.15,2013-02-24 17:25:00,
2013-02-24 11:26:00,33.7,23.9,30.15,SE,134,2.0,4.0,67,0.00,,,0.01,Wunderground v.1.15,2013-02-24 17:26:00,
2013-02-24 11:28:00,33.7,23.5,30.15,SE,141,2.0,4.0,66,0.00,,,0.01,Wunderground v.1.15,2013-02-24 17:28:00,
2013-02-24 11:32:00,33.9,23.7,30.15,South,172,1.0,2.0,66,0.00,,,0.01,Wunderground v.1.15,2013-02-24 17:32:00,
2013-02-24 11:34:00,34.2,24.0,30.16,ESE,115,1.0,2.0,66,0.00,,,0.01,Wunderground v.1.15,2013-02-24 17:34:00,
2013-02-24 11:35:00,34.3,24.1,30.15,East,93,1.0,2.0,66,0.00,,,0.01,Wunderground v.1.15,2013-02-24 17:35:00,
2013-02-24 11:37:00,34.4,23.8,30.15,SSE,164,1.0,2.0,65,0.00,,,0.01,Wunderground v.1.15,2013-02-24 17:37:00,
2013-02-24 11:39:00,34.6,24.0,30.15,ESE,120,1.0,3.0,65,0.00,,,0.01,Wunderground v.1.15,2013-02-24 17:39:00,
2013-02-24 11:40:00,34.7,24.1,30.15,ESE,102,1.0,2.0,65,0.00,,,0.01,Wunderground v.1.15,2013-02-24 17:40:00,
2013-02-24 11:44:00,35.0,24.4,30.15,SE,142,1.0,2.0,65,0.00,,,0.02,Wunderground v.1.15,2013-02-24 17:44:00,
2013-02-24 11:46:00,35.3,24.7,30.15,SSE,164,1.0,3.0,65,0.00,,,0.02,Wunderground v.1.15,2013-02-24 17:46:00,
2013-02-24 11:50:00,35.6,24.6,30.15,SSE,153,1.0,1.0,64,0.00,,,0.02,Wunderground v.1.15,2013-02-24 17:50:00,
2013-02-24 11:51:00,35.7,24.7,30.15,ESE,122,1.0,3.0,64,0.00,,,0.02,Wunderground v.1.15,2013-02-24 17:51:00,
2013-02-24 11:53:00,35.7,24.3,30.15,SE,141,1.0,3.0,63,0.00,,,0.02,Wunderground v.1.15,2013-02-24 17:53:00,
2013-02-24 11:56:00,35.8,24.4,30.15,SSE,166,2.0,4.0,63,0.00,,,0.02,Wunderground v.1.15,2013-02-24 17:56:00,
2013-02-24 11:57:00,35.9,24.5,30.15,SE,142,2.0,4.0,63,0.00,,,0.02,Wunderground v.1.15,2013-02-24 17:57:00,
2013-02-24 11:58:00,35.9,24.5,30.15,ESE,110,2.0,4.0,63,0.00,,,0.02,Wunderground v.1.15,2013-02-24 17:58:00,
2013-02-24 12:01:00,36.0,24.2,30.15,SSW,203,1.0,1.0,62,0.00,,,0.02,Wunderground v.1.15,2013-02-24 18:01:00,
2013-02-24 12:04:00,36.4,25.4,30.15,SSW,198,1.0,4.0,64,0.00,,,0.02,Wunderground v.1.15,2013-02-24 18:04:00,
2013-02-24 12:07:00,36.4,25.0,30.15,SSW,212,1.0,4.0,63,0.00,,,0.02,Wunderground v.1.15,2013-02-24 18:07:00,
2013-02-24 12:09:00,36.3,24.9,30.15,SW,218,2.0,5.0,63,0.00,,,0.02,Wunderground v.1.15,2013-02-24 18:09:00,
2013-02-24 12:11:00,36.1,24.3,30.15,SW,219,3.0,5.0,62,0.00,,,0.03,Wunderground v.1.15,2013-02-24 18:11:00,
2013-02-24 12:12:00,36.0,24.6,30.15,SW,219,3.0,5.0,63,0.00,,,0.03,Wunderground v.1.15,2013-02-24 18:12:00,
2013-02-24 12:13:00,35.9,24.9,30.15,SSW,210,3.0,5.0,64,0.00,,,0.03,Wunderground v.1.15,2013-02-24 18:13:00,
2013-02-24 12:14:00,35.9,25.3,30.15,SW,225,4.0,5.0,65,0.00,,,0.03,Wunderground v.1.15,2013-02-24 18:14:00,
2013-02-24 12:17:00,35.8,24.4,30.15,SSW,200,4.0,5.0,63,0.00,,,0.03,Wunderground v.1.15,2013-02-24 18:17:00,
2013-02-24 12:19:00,35.8,24.8,30.15,SW,232,4.0,5.0,64,0.00,,,0.03,Wunderground v.1.15,2013-02-24 18:19:00,
2013-02-24 12:20:00,35.8,24.8,30.15,SW,224,4.0,4.0,64,0.00,,,0.03,Wunderground v.1.15,2013-02-24 18:20:00,
2013-02-24 12:22:00,35.8,24.8,30.15,WSW,248,3.0,4.0,64,0.00,,,0.03,Wunderground v.1.15,2013-02-24 18:22:00,
2013-02-24 12:24:00,35.8,25.2,30.15,WSW,242,3.0,4.0,65,0.00,,,0.03,Wunderground v.1.15,2013-02-24 18:24:00,
2013-02-24 12:26:00,35.9,25.3,30.15,SSW,211,3.0,4.0,65,0.00,,,0.03,Wunderground v.1.15,2013-02-24 18:26:00,
2013-02-24 12:28:00,36.1,25.1,30.15,South,181,3.0,4.0,64,0.00,,,0.03,Wunderground v.1.15,2013-02-24 18:28:00,
2013-02-24 12:29:00,36.2,25.2,30.14,SSW,204,3.0,4.0,64,0.00,,,0.03,Wunderground v.1.15,2013-02-24 18:29:00,
2013-02-24 12:31:00,36.3,24.9,30.14,SSW,212,3.0,4.0,63,0.00,,,0.03,Wunderground v.1.15,2013-02-24 18:31:00,
2013-02-24 12:32:00,36.4,25.0,30.14,SSE,167,3.0,4.0,63,0.00,,,0.03,Wunderground v.1.15,2013-02-24 18:32:00,
2013-02-24 12:36:00,36.8,25.8,30.14,SSE,152,3.0,5.0,64,0.00,,,0.03,Wunderground v.1.15,2013-02-24 18:36:00,
2013-02-24 12:37:00,36.8,25.8,30.14,SSE,164,3.0,5.0,64,0.00,,,0.03,Wunderground v.1.15,2013-02-24 18:37:00,
2013-02-24 12:41:00,37.0,25.6,30.14,South,188,3.0,3.0,63,0.00,,,0.04,Wunderground v.1.15,2013-02-24 18:41:00,
2013-02-24 12:43:00,37.3,26.2,30.14,SSW,198,3.0,3.0,64,0.00,,,0.04,Wunderground v.1.15,2013-02-24 18:43:00,
2013-02-24 12:44:00,37.4,25.9,30.14,SSW,201,3.0,3.0,63,0.00,,,0.04,Wunderground v.1.15,2013-02-24 18:44:00,
2013-02-24 12:46:00,37.6,26.1,30.14,SSW,198,2.0,5.0,63,0.00,,,0.04,Wunderground v.1.15,2013-02-24 18:46:00,
2013-02-24 12:47:00,37.7,25.8,30.14,SSW,205,2.0,5.0,62,0.00,,,0.04,Wunderground v.1.15,2013-02-24 18:47:00,
2013-02-24 12:48:00,37.7,26.2,30.14,SSE,162,2.0,6.0,63,0.00,,,0.04,Wunderground v.1.15,2013-02-24 18:48:00,
2013-02-24 12:50:00,37.7,25.8,30.14,South,174,2.0,2.0,62,0.00,,,0.04,Wunderground v.1.15,2013-02-24 18:50:00,
2013-02-24 12:51:00,37.7,25.8,30.14,South,181,2.0,5.0,62,0.00,,,0.04,Wunderground v.1.15,2013-02-24 18:51:00,
2013-02-24 12:53:00,37.8,25.9,30.14,SSE,158,2.0,5.0,62,0.00,,,0.04,Wunderground v.1.15,2013-02-24 18:53:00,
2013-02-24 12:57:00,37.7,25.5,30.14,SSE,154,3.0,5.0,61,0.00,,,0.04,Wunderground v.1.15,2013-02-24 18:57:00,
2013-02-24 12:58:00,37.7,25.5,30.14,SE,131,3.0,5.0,61,0.00,,,0.04,Wunderground v.1.15,2013-02-24 18:58:00,
2013-02-24 12:59:00,37.7,25.5,30.14,SSE,152,3.0,5.0,61,0.00,,,0.04,Wunderground v.1.15,2013-02-24 18:59:00,
2013-02-24 13:00:00,37.6,25.7,30.14,SSE,168,3.0,4.0,62,0.00,,,0.04,Wunderground v.1.15,2013-02-24 19:00:00,
2013-02-24 13:03:00,37.7,25.5,30.14,SSE,167,3.0,4.0,61,0.00,,,0.04,Wunderground v.1.15,2013-02-24 19:03:00,
2013-02-24 13:06:00,37.9,26.4,30.14,SSE,165,3.0,4.0,63,0.00,,,0.04,Wunderground v.1.15,2013-02-24 19:06:00,
2013-02-24 13:08:00,38.0,25.7,30.14,SSE,163,3.0,4.0,61,0.00,,,0.04,Wunderground v.1.15,2013-02-24 19:08:00,
2013-02-24 13:10:00,38.0,25.7,30.14,South,171,3.0,3.0,61,0.00,,,0.04,Wunderground v.1.15,2013-02-24 19:10:00,
2013-02-24 13:13:00,38.1,26.2,30.14,SE,141,3.0,4.0,62,0.00,,,0.04,Wunderground v.1.15,2013-02-24 19:13:00,
2013-02-24 13:15:00,38.0,25.7,30.14,SE,143,3.0,6.0,61,0.00,,,0.04,Wunderground v.1.15,2013-02-24 19:15:00,
2013-02-24 13:16:00,37.9,25.6,30.14,SSE,160,3.0,6.0,61,0.00,,,0.04,Wunderground v.1.15,2013-02-24 19:16:00,
2013-02-24 13:17:00,37.9,26.0,30.14,SSE,165,3.0,6.0,62,0.00,,,0.04,Wunderground v.1.15,2013-02-24 19:17:00,
2013-02-24 13:19:00,37.9,26.0,30.14,SSE,165,4.0,6.0,62,0.00,,,0.04,Wunderground v.1.15,2013-02-24 19:19:00,
2013-02-24 13:20:00,37.9,26.0,30.14,SSE,162,4.0,4.0,62,0.00,,,0.04,Wunderground v.1.15,2013-02-24 19:20:00,
2013-02-24 13:21:00,37.9,26.0,30.14,South,171,4.0,4.0,62,0.00,,,0.05,Wunderground v.1.15,2013-02-24 19:21:00,
2013-02-24 13:22:00,37.9,26.0,30.14,SSE,166,4.0,4.0,62,0.00,,,0.05,Wunderground v.1.15,2013-02-24 19:22:00,
2013-02-24 13:25:00,38.0,26.1,30.14,SSE,163,3.0,5.0,62,0.00,,,0.05,Wunderground v.1.15,2013-02-24 19:25:00,
2013-02-24 13:26:00,38.0,26.1,30.14,SSE,159,3.0,7.0,62,0.00,,,0.05,Wunderground v.1.15,2013-02-24 19:26:00,
2013-02-24 13:27:00,37.9,26.0,30.14,SE,140,4.0,7.0,62,0.00,,,0.05,Wunderground v.1.15,2013-02-24 19:27:00,
2013-02-24 13:30:00,37.7,25.5,30.14,SE,141,4.0,4.0,61,0.00,,,0.05,Wunderground v.1.15,2013-02-24 19:30:00,
2013-02-24 13:32:00,37.7,26.2,30.14,SE,137,4.0,4.0,63,0.00,,,0.05,Wunderground v.1.15,2013-02-24 19:32:00,
2013-02-24 13:33:00,37.7,26.2,30.13,SSE,153,4.0,4.0,63,0.00,,,0.05,Wunderground v.1.15,2013-02-24 19:33:00,
2013-02-24 13:37:00,37.9,26.0,30.13,SE,141,3.0,6.0,62,0.00,,,0.05,Wunderground v.1.15,2013-02-24 19:37:00,
2013-02-24 13:38:00,37.9,26.0,30.13,SSW,195,3.0,6.0,62,0.00,,,0.05,Wunderground v.1.15,2013-02-24 19:38:00,
2013-02-24 13:41:00,38.0,26.1,30.13,SE,143,4.0,5.0,62,0.00,,,0.05,Wunderground v.1.15,2013-02-24 19:41:00,
2013-02-24 13:42:00,38.1,26.6,30.13,South,174,4.0,5.0,63,0.00,,,0.05,Wunderground v.1.15,2013-02-24 19:42:00,
2013-02-24 13:45:00,38.2,26.7,30.13,SSE,166,4.0,5.0,63,0.00,,,0.05,Wunderground v.1.15,2013-02-24 19:45:00,
2013-02-24 13:47:00,38.3,26.8,30.13,South,183,4.0,5.0,63,0.00,,,0.05,Wunderground v.1.15,2013-02-24 19:47:00,
2013-02-24 13:48:00,38.3,26.8,30.13,SSW,198,4.0,5.0,63,0.00,,,0.05,Wunderground v.1.15,2013-02-24 19:48:00,
2013-02-24 13:49:00,38.3,26.4,30.13,South,175,4.0,5.0,62,0.00,,,0.05,Wunderground v.1.15,2013-02-24 19:49:00,
2013-02-24 13:54:00,38.5,27.0,30.13,SE,142,3.0,4.0,63,0.00,,,0.05,Wunderground v.1.15,2013-02-24 19:54:00,
2013-02-24 13:55:00,38.5,27.0,30.13,South,173,3.0,5.0,63,0.00,,,0.05,Wunderground v.1.15,2013-02-24 19:55:00,
2013-02-24 13:56:00,38.5,27.0,30.13,South,177,3.0,5.0,63,0.00,,,0.05,Wunderground v.1.15,2013-02-24 19:56:00,
2013-02-24 14:00:00,38.5,26.6,30.13,SE,140,4.0,4.0,62,0.00,,,0.05,Wunderground v.1.15,2013-02-24 20:00:00,
2013-02-24 14:02:00,38.4,26.9,30.13,South,190,4.0,4.0,63,0.00,,,0.05,Wunderground v.1.15,2013-02-24 20:02:00,
2013-02-24 14:03:00,38.4,26.9,30.13,South,172,4.0,4.0,63,0.00,,,0.05,Wunderground v.1.15,2013-02-24 20:03:00,
2013-02-24 14:08:00,38.5,26.6,30.13,SSE,160,4.0,6.0,62,0.00,,,0.06,Wunderground v.1.15,2013-02-24 20:08:00,
2013-02-24 14:09:00,38.4,26.5,30.13,ESE,113,4.0,6.0,62,0.00,,,0.06,Wunderground v.1.15,2013-02-24 20:09:00,
2013-02-24 14:10:00,38.4,26.1,30.13,South,175,4.0,4.0,61,0.00,,,0.06,Wunderground v.1.15,2013-02-24 20:10:00,
2013-02-24 14:14:00,38.7,27.6,30.13,South,176,3.0,6.0,64,0.00,,,0.06,Wunderground v.1.15,2013-02-24 20:14:00,
2013-02-24 14:17:00,38.9,27.8,30.13,SSE,156,3.0,6.0,64,0.00,,,0.06,Wunderground v.1.15,2013-02-24 20:17:00,
2013-02-24 14:18:00,38.9,27.4,30.13,SE,144,3.0,6.0,63,0.00,,,0.06,Wunderground v.1.15,2013-02-24 20:18:00,
2013-02-24 14:20:00,38.9,27.0,30.13,SSE,160,3.0,3.0,62,0.00,,,0.06,Wunderground v.1.15,2013-02-24 20:20:00,
2013-02-24 14:23:00,38.7,26.8,30.13,SE,127,3.0,3.0,62,0.00,,,0.06,Wunderground v.1.15,2013-02-24 20:23:00,
2013-02-24 14:24:00,38.7,27.2,30.13,SSE,148,3.0,3.0,63,0.00,,,0.06,Wunderground v.1.15,2013-02-24 20:24:00,
2013-02-24 14:26:00,38.9,28.1,30.12,ESE,122,2.0,5.0,65,0.00,,,0.06,Wunderground v.1.15,2013-02-24 20:26:00,
2013-02-24 14:27:00,38.9,27.8,30.13,ESE,108,2.0,5.0,64,0.00,,,0.06,Wunderground v.1.15,2013-02-24 20:27:00,
2013-02-24 14:30:00,38.7,27.2,30.12,ESE,113,2.0,3.0,63,0.00,,,0.06,Wunderground v.1.15,2013-02-24 20:30:00,
2013-02-24 14:35:00,38.5,26.6,30.12,ESE,116,3.0,3.0,62,0.00,,,0.06,Wunderground v.1.15,2013-02-24 20:35:00,
2013-02-24 14:37:00,38.5,27.0,30.12,SSE,167,2.0,3.0,63,0.00,,,0.06,Wunderground v.1.15,2013-02-24 20:37:00,
2013-02-24 14:38:00,38.6,27.5,30.13,South,172,2.0,3.0,64,0.00,,,0.06,Wunderground v.1.15,2013-02-24 20:38:00,
2013-02-24 14:42:00,38.9,27.4,30.12,SSE,156,3.0,3.0,63,0.00,,,0.06,Wunderground v.1.15,2013-02-24 20:42:00,
2013-02-24 14:43:00,38.9,27.4,30.12,SE,144,2.0,3.0,63,0.00,,,0.06,Wunderground v.1.15,2013-02-24 20:43:00,
2013-02-24 14:45:00,39.0,27.5,30.12,South,177,2.0,3.0,63,0.00,,,0.06,Wunderground v.1.15,2013-02-24 20:45:00,
2013-02-24 14:46:00,39.1,27.6,30.12,SE,134,2.0,3.0,63,0.00,,,0.06,Wunderground v.1.15,2013-02-24 20:46:00,
2013-02-24 14:49:00,39.3,27.4,30.13,South,177,3.0,6.0,62,0.00,,,0.06,Wunderground v.1.15,2013-02-24 20:49:00,
2013-02-24 14:50:00,39.3,27.7,30.12,SSE,167,3.0,3.0,63,0.00,,,0.06,Wunderground v.1.15,2013-02-24 20:50:00,
2013-02-24 14:52:00,39.3,27.4,30.12,SSE,148,3.0,4.0,62,0.00,,,0.06,Wunderground v.1.15,2013-02-24 20:52:00,
2013-02-24 14:55:00,39.4,27.8,30.12,SSE,162,3.0,4.0,63,0.00,,,0.06,Wunderground v.1.15,2013-02-24 20:55:00,
2013-02-24 14:57:00,39.5,27.5,30.13,South,183,3.0,4.0,62,0.00,,,0.06,Wunderground v.1.15,2013-02-24 20:57:00,
2013-02-24 15:00:00,39.5,27.5,30.13,South,181,3.0,4.0,62,0.00,,,0.06,Wunderground v.1.15,2013-02-24 21:00:00,
2013-02-24 15:01:00,39.5,27.5,30.13,SSE,153,3.0,4.0,62,0.00,,,0.06,Wunderground v.1.15,2013-02-24 21:01:00,
2013-02-24 15:03:00,39.5,27.2,30.13,SSW,200,3.0,4.0,61,0.00,,,0.06,Wunderground v.1.15,2013-02-24 21:03:00,
2013-02-24 15:05:00,39.6,27.6,30.13,South,186,3.0,5.0,62,0.00,,,0.06,Wunderground v.1.15,2013-02-24 21:05:00,
2013-02-24 15:07:00,39.5,27.5,30.13,South,174,4.0,5.0,62,0.00,,,0.06,Wunderground v.1.15,2013-02-24 21:07:00,
2013-02-24 15:09:00,39.6,27.6,30.13,South,186,4.0,5.0,62,0.00,,,0.06,Wunderground v.1.15,2013-02-24 21:09:00,
2013-02-24 15:11:00,39.6,27.6,30.12,SSE,147,4.0,4.0,62,0.00,,,0.06,Wunderground v.1.15,2013-02-24 21:11:00,
2013-02-24 15:13:00,39.5,27.2,30.13,SSE,164,3.0,4.0,61,0.00,,,0.06,Wunderground v.1.15,2013-02-24 21:13:00,
2013-02-24 15:14:00,39.5,27.2,30.13,South,179,3.0,4.0,61,0.00,,,0.06,Wunderground v.1.15,2013-02-24 21:14:00,
2013-02-24 15:19:00,39.4,27.8,30.13,SSE,150,2.0,5.0,63,0.00,,,0.06,Wunderground v.1.15,2013-02-24 21:19:00,
2013-02-24 15:20:00,39.4,27.8,30.13,SSW,200,3.0,4.0,63,0.00,,,0.06,Wunderground v.1.15,2013-02-24 21:20:00,
2013-02-24 15:23:00,39.4,27.8,30.13,South,177,3.0,5.0,63,0.00,,,0.06,Wunderground v.1.15,2013-02-24 21:23:00,
2013-02-24 15:25:00,39.5,28.3,30.13,South,176,3.0,5.0,64,0.00,,,0.06,Wunderground v.1.15,2013-02-24 21:25:00,
2013-02-24 15:26:00,39.5,27.9,30.13,South,184,3.0,5.0,63,0.00,,,0.06,Wunderground v.1.15,2013-02-24 21:26:00,
2013-02-24 15:28:00,39.5,27.5,30.13,South,172,3.0,5.0,62,0.00,,,0.06,Wunderground v.1.15,2013-02-24 21:28:00,
2013-02-24 15:29:00,39.5,27.5,30.13,South,180,4.0,5.0,62,0.00,,,0.06,Wunderground v.1.15,2013-02-24 21:29:00,
2013-02-24 15:31:00,39.6,27.2,30.13,SSE,160,3.0,3.0,61,0.00,,,0.06,Wunderground v.1.15,2013-02-24 21:31:00,
2013-02-24 15:33:00,39.6,28.0,30.13,SE,134,3.0,3.0,63,0.00,,,0.06,Wunderground v.1.15,2013-02-24 21:33:00,
2013-02-24 15:34:00,39.6,27.6,30.12,SE,142,3.0,4.0,62,0.00,,,0.06,Wunderground v.1.15,2013-02-24 21:34:00,
2013-02-24 15:36:00,39.5,27.5,30.13,SSW,193,2.0,4.0,62,0.00,,,0.06,Wunderground v.1.15,2013-02-24 21:36:00,
2013-02-24 15:40:00,39.7,28.1,30.12,SSE,167,2.0,3.0,63,0.00,,,0.06,Wunderground v.1.15,2013-02-24 21:40:00,
2013-02-24 15:41:00,39.7,28.1,30.12,South,173,2.0,4.0,63,0.00,,,0.06,Wunderground v.1.15,2013-02-24 21:41:00,
2013-02-24 15:42:00,39.7,28.1,30.12,SSE,148,3.0,4.0,63,0.00,,,0.06,Wunderground v.1.15,2013-02-24 21:42:00,
2013-02-24 15:47:00,39.7,27.7,30.12,South,170,3.0,4.0,62,0.00,,,0.06,Wunderground v.1.15,2013-02-24 21:47:00,
2013-02-24 15:49:00,39.7,27.7,30.12,South,177,3.0,4.0,62,0.00,,,0.06,Wunderground v.1.15,2013-02-24 21:49:00,
2013-02-24 15:51:00,39.7,27.7,30.12,SSE,151,4.0,4.0,62,0.00,,,0.06,Wunderground v.1.15,2013-02-24 21:51:00,
2013-02-24 15:52:00,39.7,27.7,30.12,SE,145,3.0,4.0,62,0.00,,,0.06,Wunderground v.1.15,2013-02-24 21:52:00,
2013-02-24 15:54:00,39.6,27.2,30.12,SSE,153,3.0,4.0,61,0.00,,,0.06,Wunderground v.1.15,2013-02-24 21:54:00,
2013-02-24 15:56:00,39.5,27.5,30.12,SE,145,3.0,4.0,62,0.00,,,0.06,Wunderground v.1.15,2013-02-24 21:56:00,
2013-02-24 15:58:00,39.4,27.5,30.12,South,188,3.0,4.0,62,0.00,,,0.06,Wunderground v.1.15,2013-02-24 21:58:00,
2013-02-24 15:59:00,39.4,27.8,30.12,South,171,3.0,5.0,63,0.00,,,0.06,Wunderground v.1.15,2013-02-24 21:59:00,
2013-02-24 16:02:00,39.5,27.5,30.12,SSE,148,3.0,5.0,62,0.00,,,0.06,Wunderground v.1.15,2013-02-24 22:02:00,
2013-02-24 16:03:00,39.3,27.0,30.12,SSE,160,4.0,5.0,61,0.00,,,0.06,Wunderground v.1.15,2013-02-24 22:03:00,
2013-02-24 16:04:00,39.2,26.9,30.12,SSE,158,4.0,5.0,61,0.00,,,0.06,Wunderground v.1.15,2013-02-24 22:04:00,
2013-02-24 16:05:00,39.1,26.8,30.12,South,172,4.0,5.0,61,0.00,,,0.06,Wunderground v.1.15,2013-02-24 22:05:00,
2013-02-24 16:08:00,39.2,27.7,30.12,South,169,4.0,5.0,63,0.00,,,0.06,Wunderground v.1.15,2013-02-24 22:08:00,
2013-02-24 16:10:00,39.2,27.7,30.12,SSE,160,4.0,4.0,63,0.00,,,0.06,Wunderground v.1.15,2013-02-24 22:10:00,
2013-02-24 16:11:00,39.2,27.7,30.12,South,173,3.0,4.0,63,0.00,,,0.06,Wunderground v.1.15,2013-02-24 22:11:00,
2013-02-24 16:13:00,39.3,27.4,30.12,South,177,3.0,4.0,62,0.00,,,0.06,Wunderground v.1.15,2013-02-24 22:13:00,
2013-02-24 16:16:00,39.5,28.3,30.12,SSE,164,3.0,4.0,64,0.00,,,0.06,Wunderground v.1.15,2013-02-24 22:16:00,
2013-02-24 16:18:00,39.5,28.3,30.12,SSE,150,3.0,4.0,64,0.00,,,0.06,Wunderground v.1.15,2013-02-24 22:18:00,
2013-02-24 16:19:00,39.5,28.3,30.12,South,174,3.0,5.0,64,0.00,,,0.06,Wunderground v.1.15,2013-02-24 22:19:00,
2013-02-24 16:20:00,39.5,28.3,30.12,SSW,194,3.0,5.0,64,0.00,,,0.06,Wunderground v.1.15,2013-02-24 22:20:00,
2013-02-24 16:21:00,39.5,27.5,30.12,South,176,3.0,5.0,62,0.00,,,0.06,Wunderground v.1.15,2013-02-24 22:21:00,
2013-02-24 16:25:00,39.3,27.7,30.12,SSW,195,3.0,5.0,63,0.00,,,0.06,Wunderground v.1.15,2013-02-24 22:25:00,
2013-02-24 16:26:00,39.2,27.7,30.12,South,179,3.0,5.0,63,0.00,,,0.06,Wunderground v.1.15,2013-02-24 22:26:00,
2013-02-24 16:27:00,39.2,27.7,30.12,South,174,4.0,5.0,63,0.00,,,0.06,Wunderground v.1.15,2013-02-24 22:27:00,
2013-02-24 16:29:00,39.1,27.6,30.12,SSE,160,4.0,5.0,63,0.00,,,0.06,Wunderground v.1.15,2013-02-24 22:29:00,
2013-02-24 16:32:00,39.1,27.6,30.12,South,176,4.0,5.0,63,0.00,,,0.06,Wunderground v.1.15,2013-02-24 22:32:00,
2013-02-24 16:35:00,39.0,27.8,30.12,South,175,4.0,5.0,64,0.00,,,0.06,Wunderground v.1.15,2013-02-24 22:35:00,
2013-02-24 16:38:00,38.9,27.4,30.12,South,172,4.0,5.0,63,0.00,,,0.06,Wunderground v.1.15,2013-02-24 22:38:00,
2013-02-24 16:40:00,38.8,27.3,30.12,South,186,4.0,5.0,63,0.00,,,0.06,Wunderground v.1.15,2013-02-24 22:40:00,
2013-02-24 16:41:00,38.7,27.2,30.12,SSE,165,4.0,5.0,63,0.00,,,0.06,Wunderground v.1.15,2013-02-24 22:41:00,
2013-02-24 16:43:00,38.7,27.6,30.12,South,186,4.0,5.0,64,0.00,,,0.06,Wunderground v.1.15,2013-02-24 22:43:00,
2013-02-24 16:45:00,38.6,27.5,30.12,SSW,203,4.0,5.0,64,0.00,,,0.06,Wunderground v.1.15,2013-02-24 22:45:00,
2013-02-24 16:46:00,38.6,27.5,30.12,South,188,4.0,5.0,64,0.00,,,0.06,Wunderground v.1.15,2013-02-24 22:46:00,
2013-02-24 16:48:00,38.5,27.4,30.12,South,174,4.0,5.0,64,0.00,,,0.06,Wunderground v.1.15,2013-02-24 22:48:00,
2013-02-24 16:49:00,38.4,27.7,30.12,SSE,158,4.0,5.0,65,0.00,,,0.06,Wunderground v.1.15,2013-02-24 22:49:00,
2013-02-24 16:51:00,38.4,27.3,30.12,South,180,4.0,4.0,64,0.00,,,0.06,Wunderground v.1.15,2013-02-24 22:51:00,
2013-02-24 16:56:00,38.3,27.9,30.12,South,169,3.0,4.0,66,0.00,,,0.06,Wunderground v.1.15,2013-02-24 22:56:00,
2013-02-24 16:57:00,38.3,27.9,30.12,South,176,3.0,4.0,66,0.00,,,0.06,Wunderground v.1.15,2013-02-24 22:57:00,
2013-02-24 16:58:00,38.3,27.9,30.12,SSE,155,2.0,4.0,66,0.00,,,0.06,Wunderground v.1.15,2013-02-24 22:58:00,
2013-02-24 17:02:00,38.1,27.7,30.12,SSE,159,1.0,2.0,66,0.00,,,0.06,Wunderground v.1.15,2013-02-24 23:02:00,
2013-02-24 17:03:00,38.0,27.6,30.12,South,177,1.0,3.0,66,0.00,,,0.06,Wunderground v.1.15,2013-02-24 23:03:00,
2013-02-24 17:05:00,37.9,27.5,30.12,SSE,165,1.0,3.0,66,0.00,,,0.06,Wunderground v.1.15,2013-02-24 23:05:00,
2013-02-24 17:08:00,37.8,27.8,30.12,SSE,158,1.0,3.0,67,0.00,,,0.06,Wunderground v.1.15,2013-02-24 23:08:00,
2013-02-24 17:11:00,37.6,27.6,30.12,South,190,1.0,2.0,67,0.00,,,0.06,Wunderground v.1.15,2013-02-24 23:11:00,
2013-02-24 17:13:00,37.5,27.5,30.12,SSE,166,1.0,2.0,67,0.00,,,0.06,Wunderground v.1.15,2013-02-24 23:13:00,
2013-02-24 17:15:00,37.4,27.4,30.12,SSE,156,1.0,2.0,67,0.00,,,0.06,Wunderground v.1.15,2013-02-24 23:15:00,
2013-02-24 17:16:00,37.3,27.7,30.12,SSW,201,1.0,2.0,68,0.00,,,0.06,Wunderground v.1.15,2013-02-24 23:16:00,
2013-02-24 17:19:00,37.1,27.5,30.12,SSE,166,1.0,4.0,68,0.00,,,0.06,Wunderground v.1.15,2013-02-24 23:19:00,
2013-02-24 17:21:00,37.0,27.4,30.12,SE,146,1.0,2.0,68,0.00,,,0.06,Wunderground v.1.15,2013-02-24 23:21:00,
2013-02-24 17:24:00,36.8,27.2,30.12,SSE,166,1.0,2.0,68,0.00,,,0.06,Wunderground v.1.15,2013-02-24 23:24:00,
2013-02-24 17:26:00,36.5,26.9,30.12,SE,145,1.0,2.0,68,0.00,,,0.06,Wunderground v.1.15,2013-02-24 23:26:00,
2013-02-24 17:28:00,36.3,27.1,30.12,SSE,155,1.0,2.0,69,0.00,,,0.06,Wunderground v.1.15,2013-02-24 23:28:00,
2013-02-24 17:30:00,36.1,26.9,30.12,South,172,1.0,1.0,69,0.00,,,0.06,Wunderground v.1.15,2013-02-24 23:30:00,
2013-02-24 17:32:00,35.9,26.7,30.12,SSE,165,1.0,1.0,69,0.00,,,0.06,Wunderground v.1.15,2013-02-24 23:32:00,
2013-02-24 17:35:00,35.7,26.9,30.12,SSE,152,0.0,1.0,70,0.00,,,0.06,Wunderground v.1.15,2013-02-24 23:35:00,
2013-02-24 17:37:00,35.5,26.7,30.12,SE,141,0.0,1.0,70,0.00,,,0.06,Wunderground v.1.15,2013-02-24 23:37:00,
2013-02-24 17:38:00,35.5,26.7,30.12,SE,141,0.0,1.0,70,0.00,,,0.06,Wunderground v.1.15,2013-02-24 23:38:00,
2013-02-24 17:40:00,35.3,26.8,30.12,SE,141,0.0,0.0,71,0.00,,,0.06,Wunderground v.1.15,2013-02-24 23:40:00,
2013-02-24 17:42:00,35.1,26.6,30.12,SE,143,0.0,0.0,71,0.00,,,0.06,Wunderground v.1.15,2013-02-24 23:42:00,
2013-02-24 17:43:00,35.1,26.6,30.12,SE,144,0.0,0.0,71,0.00,,,0.06,Wunderground v.1.15,2013-02-24 23:43:00,
2013-02-24 17:46:00,34.9,26.4,30.12,SSE,150,0.0,0.0,71,0.00,,,0.06,Wunderground v.1.15,2013-02-24 23:46:00,
2013-02-24 17:48:00,34.8,26.4,30.12,SSE,154,0.0,0.0,71,0.00,,,0.06,Wunderground v.1.15,2013-02-24 23:48:00,
2013-02-24 17:49:00,34.8,26.4,30.12,SSE,152,0.0,0.0,71,0.00,,,0.06,Wunderground v.1.15,2013-02-24 23:49:00,
2013-02-24 17:53:00,34.6,26.5,30.12,SSE,149,0.0,0.0,72,0.00,,,0.06,Wunderground v.1.15,2013-02-24 23:53:00,
2013-02-24 17:54:00,34.5,26.4,30.12,SSE,156,0.0,0.0,72,0.00,,,0.06,Wunderground v.1.15,2013-02-24 23:54:00,
2013-02-24 17:56:00,34.4,26.3,30.12,SE,140,0.0,0.0,72,0.00,,,0.06,Wunderground v.1.15,2013-02-24 23:56:00,
2013-02-24 18:00:00,34.2,26.1,30.12,SE,135,0.0,0.0,72,0.00,,,0.06,Wunderground v.1.15,2013-02-25 00:00:00,
2013-02-24 18:02:00,34.1,26.0,30.12,ESE,122,0.0,0.0,72,0.00,,,0.06,Wunderground v.1.15,2013-02-25 00:02:00,
2013-02-24 18:04:00,34.0,25.9,30.12,ESE,122,0.0,0.0,72,0.00,,,0.06,Wunderground v.1.15,2013-02-25 00:04:00,
2013-02-24 18:05:00,34.0,25.9,30.12,ESE,123,0.0,0.0,72,0.00,,,0.06,Wunderground v.1.15,2013-02-25 00:05:00,
2013-02-24 18:07:00,33.8,25.7,30.12,ESE,122,0.0,0.0,72,0.00,,,0.06,Wunderground v.1.15,2013-02-25 00:07:00,
2013-02-24 18:12:00,33.5,25.4,30.12,ESE,123,0.0,0.0,72,0.00,,,0.06,Wunderground v.1.15,2013-02-25 00:12:00,
2013-02-24 18:13:00,33.5,25.4,30.12,ESE,122,0.0,0.0,72,0.00,,,0.06,Wunderground v.1.15,2013-02-25 00:13:00,
2013-02-24 18:14:00,33.4,25.3,30.12,ESE,123,0.0,0.0,72,0.00,,,0.06,Wunderground v.1.15,2013-02-25 00:14:00,
2013-02-24 18:18:00,33.2,25.1,30.12,ESE,122,0.0,0.0,72,0.00,,,0.06,Wunderground v.1.15,2013-02-25 00:18:00,
2013-02-24 18:20:00,33.1,25.4,30.12,ESE,122,0.0,0.0,73,0.00,,,0.06,Wunderground v.1.15,2013-02-25 00:20:00,
2013-02-24 18:21:00,33.1,25.4,30.12,ESE,122,0.0,0.0,73,0.00,,,0.06,Wunderground v.1.15,2013-02-25 00:21:00,
2013-02-24 18:22:00,33.0,25.3,30.12,ESE,122,0.0,0.0,73,0.00,,,0.06,Wunderground v.1.15,2013-02-25 00:22:00,
2013-02-24 18:23:00,33.0,25.3,30.12,ESE,122,0.0,0.0,73,0.00,,,0.06,Wunderground v.1.15,2013-02-25 00:23:00,
2013-02-24 18:27:00,32.8,25.1,30.12,ESE,122,0.0,0.0,73,0.00,,,0.06,Wunderground v.1.15,2013-02-25 00:27:00,
2013-02-24 18:28:00,32.7,25.0,30.13,ESE,122,0.0,0.0,73,0.00,,,0.06,Wunderground v.1.15,2013-02-25 00:28:00,
2013-02-24 18:29:00,32.6,24.9,30.13,ESE,123,0.0,0.0,73,0.00,,,0.06,Wunderground v.1.15,2013-02-25 00:29:00,
2013-02-24 18:32:00,32.2,24.5,30.13,ESE,123,0.0,0.0,73,0.00,,,0.06,Wunderground v.1.15,2013-02-25 00:32:00,
2013-02-24 18:33:00,32.1,24.4,30.13,ESE,122,0.0,0.0,73,0.00,,,0.06,Wunderground v.1.15,2013-02-25 00:33:00,
2013-02-24 18:35:00,31.8,24.1,30.13,ESE,122,0.0,0.0,73,0.00,,,0.06,Wunderground v.1.15,2013-02-25 00:35:00,
2013-02-24 18:37:00,31.6,24.3,30.13,ESE,123,0.0,0.0,74,0.00,,,0.06,Wunderground v.1.15,2013-02-25 00:37:00,
2013-02-24 18:40:00,31.4,24.1,30.13,ESE,123,0.0,0.0,74,0.00,,,0.06,Wunderground v.1.15,2013-02-25 00:40:00,
2013-02-24 18:41:00,31.3,24.3,30.13,ESE,122,0.0,0.0,75,0.00,,,0.06,Wunderground v.1.15,2013-02-25 00:41:00,
2013-02-24 18:42:00,31.2,24.2,30.13,ESE,123,0.0,0.0,75,0.00,,,0.06,Wunderground v.1.15,2013-02-25 00:42:00,
2013-02-24 18:45:00,31.1,24.1,30.13,ESE,123,0.0,0.0,75,0.00,,,0.06,Wunderground v.1.15,2013-02-25 00:45:00,
2013-02-24 18:46:00,31.0,24.0,30.13,ESE,123,0.0,0.0,75,0.00,,,0.06,Wunderground v.1.15,2013-02-25 00:46:00,
2013-02-24 18:50:00,30.6,23.9,30.14,ESE,122,0.0,0.0,76,0.00,,,0.06,Wunderground v.1.15,2013-02-25 00:50:00,
2013-02-24 18:51:00,30.6,23.9,30.14,ESE,122,0.0,0.0,76,0.00,,,0.06,Wunderground v.1.15,2013-02-25 00:51:00,
2013-02-24 18:53:00,30.4,23.7,30.14,ESE,123,0.0,0.0,76,0.00,,,0.06,Wunderground v.1.15,2013-02-25 00:53:00,
2013-02-24 18:56:00,30.2,23.9,30.14,ESE,122,0.0,0.0,77,0.00,,,0.06,Wunderground v.1.15,2013-02-25 00:56:00,
2013-02-24 18:58:00,30.1,23.8,30.14,ESE,123,0.0,0.0,77,0.00,,,0.06,Wunderground v.1.15,2013-02-25 00:58:00,
2013-02-24 19:01:00,29.8,23.8,30.14,ESE,123,0.0,0.0,78,0.00,,,0.06,Wunderground v.1.15,2013-02-25 01:01:00,
2013-02-24 19:03:00,29.7,23.7,30.14,ESE,123,0.0,0.0,78,0.00,,,0.06,Wunderground v.1.15,2013-02-25 01:03:00,
2013-02-24 19:04:00,29.6,23.6,30.14,ESE,122,0.0,0.0,78,0.00,,,0.06,Wunderground v.1.15,2013-02-25 01:04:00,
2013-02-24 19:07:00,29.5,23.8,30.14,ESE,122,0.0,0.0,79,0.00,,,0.06,Wunderground v.1.15,2013-02-25 01:07:00,
2013-02-24 19:08:00,29.4,23.7,30.14,ESE,122,0.0,0.0,79,0.00,,,0.06,Wunderground v.1.15,2013-02-25 01:08:00,
2013-02-24 19:12:00,29.3,23.9,30.14,ESE,123,0.0,0.0,80,0.00,,,0.06,Wunderground v.1.15,2013-02-25 01:12:00,
2013-02-24 19:13:00,29.3,23.9,30.14,ESE,122,0.0,0.0,80,0.00,,,0.06,Wunderground v.1.15,2013-02-25 01:13:00,
2013-02-24 19:16:00,29.2,23.8,30.14,ESE,122,0.0,0.0,80,0.00,,,0.06,Wunderground v.1.15,2013-02-25 01:16:00,
2013-02-24 19:18:00,29.2,24.1,30.14,ESE,123,0.0,0.0,81,0.00,,,0.06,Wunderground v.1.15,2013-02-25 01:18:00,
2013-02-24 19:20:00,29.1,24.0,30.14,ESE,123,0.0,0.0,81,0.00,,,0.06,Wunderground v.1.15,2013-02-25 01:20:00,
2013-02-24 19:22:00,29.0,23.9,30.14,ESE,121,0.0,0.0,81,0.00,,,0.06,Wunderground v.1.15,2013-02-25 01:22:00,
2013-02-24 19:23:00,29.0,24.2,30.13,ESE,115,0.0,0.0,82,0.00,,,0.06,Wunderground v.1.15,2013-02-25 01:23:00,
2013-02-24 19:25:00,28.9,24.1,30.13,NE,56,0.0,0.0,82,0.00,,,0.06,Wunderground v.1.15,2013-02-25 01:25:00,
2013-02-24 19:30:00,29.1,24.6,30.13,ENE,63,0.0,0.0,83,0.00,,,0.06,Wunderground v.1.15,2013-02-25 01:30:00,
2013-02-24 19:35:00,29.7,25.5,30.13,East,99,0.0,0.0,84,0.00,,,0.06,Wunderground v.1.15,2013-02-25 01:35:00,
2013-02-24 19:39:00,29.9,25.4,30.13,East,101,0.0,0.0,83,0.00,,,0.06,Wunderground v.1.15,2013-02-25 01:39:00,
2013-02-24 19:41:00,30.0,25.5,30.13,East,101,0.0,0.0,83,0.00,,,0.06,Wunderground v.1.15,2013-02-25 01:41:00,
2013-02-24 19:42:00,30.0,25.5,30.13,East,101,0.0,0.0,83,0.00,,,0.06,Wunderground v.1.15,2013-02-25 01:42:00,
2013-02-24 19:44:00,30.0,25.5,30.13,East,101,0.0,0.0,83,0.00,,,0.06,Wunderground v.1.15,2013-02-25 01:44:00,
2013-02-24 19:46:00,30.0,25.2,30.14,East,101,0.0,0.0,82,0.00,,,0.06,Wunderground v.1.15,2013-02-25 01:46:00,
2013-02-24 19:49:00,30.1,25.6,30.14,East,100,0.0,0.0,83,0.00,,,0.06,Wunderground v.1.15,2013-02-25 01:49:00,
2013-02-24 19:50:00,30.1,25.6,30.14,East,101,0.0,0.0,83,0.00,,,0.06,Wunderground v.1.15,2013-02-25 01:50:00,
2013-02-24 19:51:00,30.1,25.6,30.14,ESE,103,0.0,0.0,83,0.00,,,0.06,Wunderground v.1.15,2013-02-25 01:51:00,
2013-02-24 19:55:00,30.3,25.8,30.14,ESE,103,0.0,0.0,83,0.00,,,0.06,Wunderground v.1.15,2013-02-25 01:55:00,
2013-02-24 19:58:00,30.4,25.9,30.14,ESE,102,0.0,0.0,83,0.00,,,0.06,Wunderground v.1.15,2013-02-25 01:58:00,
2013-02-24 20:01:00,30.1,25.3,30.14,East,87,0.0,0.0,82,0.00,,,0.06,Wunderground v.1.15,2013-02-25 02:01:00,
2013-02-24 20:02:00,30.0,25.2,30.14,East,87,0.0,0.0,82,0.00,,,0.06,Wunderground v.1.15,2013-02-25 02:02:00,
2013-02-24 20:04:00,29.6,24.5,30.14,East,88,0.0,0.0,81,0.00,,,0.06,Wunderground v.1.15,2013-02-25 02:04:00,
2013-02-24 20:07:00,29.2,24.4,30.14,East,87,0.0,0.0,82,0.00,,,0.06,Wunderground v.1.15,2013-02-25 02:07:00,
2013-02-24 20:09:00,29.4,25.2,30.14,ESE,120,0.0,0.0,84,0.00,,,0.06,Wunderground v.1.15,2013-02-25 02:09:00,
2013-02-24 20:11:00,29.5,25.3,30.14,ESE,120,0.0,0.0,84,0.00,,,0.06,Wunderground v.1.15,2013-02-25 02:11:00,
2013-02-24 20:12:00,29.6,25.4,30.14,ESE,117,0.0,0.0,84,0.00,,,0.06,Wunderground v.1.15,2013-02-25 02:12:00,
2013-02-24 20:13:00,29.6,25.4,30.14,ESE,113,0.0,0.0,84,0.00,,,0.06,Wunderground v.1.15,2013-02-25 02:13:00,
2013-02-24 20:16:00,29.2,24.4,30.14,ESE,113,0.0,0.0,82,0.00,,,0.06,Wunderground v.1.15,2013-02-25 02:16:00,
2013-02-24 20:17:00,29.0,24.2,30.14,ESE,113,0.0,0.0,82,0.00,,,0.06,Wunderground v.1.15,2013-02-25 02:17:00,
2013-02-24 20:18:00,28.9,24.4,30.14,ESE,113,0.0,0.0,83,0.00,,,0.06,Wunderground v.1.15,2013-02-25 02:18:00,
2013-02-24 20:22:00,29.0,24.8,30.14,ESE,113,0.0,0.0,84,0.00,,,0.06,Wunderground v.1.15,2013-02-25 02:22:00,
2013-02-24 20:23:00,29.0,24.8,30.14,ESE,113,0.0,0.0,84,0.00,,,0.06,Wunderground v.1.15,2013-02-25 02:23:00,
2013-02-24 20:26:00,29.4,25.4,30.14,ESE,113,0.0,0.0,85,0.00,,,0.06,Wunderground v.1.15,2013-02-25 02:26:00,
2013-02-24 20:28:00,29.7,25.7,30.14,ESE,113,0.0,0.0,85,0.00,,,0.06,Wunderground v.1.15,2013-02-25 02:28:00,
2013-02-24 20:33:00,29.8,25.6,30.14,ESE,113,0.0,0.0,84,0.00,,,0.06,Wunderground v.1.15,2013-02-25 02:33:00,
2013-02-24 20:36:00,29.5,25.0,30.14,ESE,113,0.0,0.0,83,0.00,,,0.06,Wunderground v.1.15,2013-02-25 02:36:00,
2013-02-24 20:37:00,29.4,24.9,30.14,ESE,113,0.0,0.0,83,0.00,,,0.06,Wunderground v.1.15,2013-02-25 02:37:00,
2013-02-24 20:39:00,29.4,24.9,30.14,ESE,113,0.0,0.0,83,0.00,,,0.06,Wunderground v.1.15,2013-02-25 02:39:00,
2013-02-24 20:42:00,29.3,25.1,30.14,ESE,113,0.0,0.0,84,0.00,,,0.06,Wunderground v.1.15,2013-02-25 02:42:00,
2013-02-24 20:44:00,29.1,24.6,30.14,ESE,113,0.0,0.0,83,0.00,,,0.06,Wunderground v.1.15,2013-02-25 02:44:00,
2013-02-24 20:45:00,29.0,24.5,30.14,ESE,113,0.0,0.0,83,0.00,,,0.06,Wunderground v.1.15,2013-02-25 02:45:00,
2013-02-24 20:47:00,28.9,24.7,30.15,ESE,113,0.0,0.0,84,0.00,,,0.06,Wunderground v.1.15,2013-02-25 02:47:00,
2013-02-24 20:52:00,29.1,25.2,30.15,ESE,113,0.0,0.0,85,0.00,,,0.06,Wunderground v.1.15,2013-02-25 02:52:00,
2013-02-24 20:53:00,29.3,25.4,30.14,ESE,113,0.0,0.0,85,0.00,,,0.06,Wunderground v.1.15,2013-02-25 02:53:00,
2013-02-24 20:54:00,29.3,25.4,30.14,ESE,113,0.0,0.0,85,0.00,,,0.06,Wunderground v.1.15,2013-02-25 02:54:00,
2013-02-24 20:56:00,29.3,25.4,30.14,ESE,113,0.0,0.0,85,0.00,,,0.06,Wunderground v.1.15,2013-02-25 02:56:00,
2013-02-24 20:57:00,29.3,25.4,30.14,ESE,113,0.0,0.0,85,0.00,,,0.06,Wunderground v.1.15,2013-02-25 02:57:00,
2013-02-24 20:59:00,29.2,25.0,30.15,ESE,113,0.0,0.0,84,0.00,,,0.06,Wunderground v.1.15,2013-02-25 02:59:00,
2013-02-24 21:02:00,29.0,24.8,30.15,ESE,113,0.0,0.0,84,0.00,,,0.06,Wunderground v.1.15,2013-02-25 03:02:00,
2013-02-24 21:05:00,29.0,25.1,30.15,ESE,113,0.0,0.0,85,0.00,,,0.06,Wunderground v.1.15,2013-02-25 03:05:00,
2013-02-24 21:06:00,28.9,25.0,30.15,ESE,113,0.0,0.0,85,0.00,,,0.06,Wunderground v.1.15,2013-02-25 03:06:00,
2013-02-24 21:09:00,28.7,24.5,30.15,ESE,113,0.0,0.0,84,0.00,,,0.06,Wunderground v.1.15,2013-02-25 03:09:00,
2013-02-24 21:10:00,28.6,24.4,30.15,ESE,113,0.0,0.0,84,0.00,,,0.06,Wunderground v.1.15,2013-02-25 03:10:00,
2013-02-24 21:11:00,28.5,24.3,30.15,ESE,113,0.0,0.0,84,0.00,,,0.06,Wunderground v.1.15,2013-02-25 03:11:00,
2013-02-24 21:13:00,28.3,24.1,30.15,ESE,113,0.0,0.0,84,0.00,,,0.06,Wunderground v.1.15,2013-02-25 03:13:00,
2013-02-24 21:15:00,28.1,23.9,30.15,ESE,113,0.0,0.0,84,0.00,,,0.06,Wunderground v.1.15,2013-02-25 03:15:00,
2013-02-24 21:16:00,28.1,24.2,30.15,ESE,113,0.0,0.0,85,0.00,,,0.06,Wunderground v.1.15,2013-02-25 03:16:00,
2013-02-24 21:17:00,28.2,24.3,30.15,ESE,113,0.0,0.0,85,0.00,,,0.06,Wunderground v.1.15,2013-02-25 03:17:00,
2013-02-24 21:20:00,28.3,24.6,30.15,ESE,113,0.0,0.0,86,0.00,,,0.06,Wunderground v.1.15,2013-02-25 03:20:00,
2013-02-24 21:22:00,28.3,24.6,30.15,ESE,113,0.0,0.0,86,0.00,,,0.06,Wunderground v.1.15,2013-02-25 03:22:00,
2013-02-24 21:25:00,28.1,24.2,30.15,ESE,113,0.0,0.0,85,0.00,,,0.06,Wunderground v.1.15,2013-02-25 03:25:00,
2013-02-24 21:27:00,27.9,24.0,30.15,ESE,113,0.0,0.0,85,0.00,,,0.06,Wunderground v.1.15,2013-02-25 03:27:00,
2013-02-24 21:28:00,28.0,24.4,30.15,ESE,113,0.0,0.0,86,0.00,,,0.06,Wunderground v.1.15,2013-02-25 03:28:00,
2013-02-24 21:29:00,27.9,24.3,30.15,ESE,113,0.0,0.0,86,0.00,,,0.06,Wunderground v.1.15,2013-02-25 03:29:00,
2013-02-24 21:34:00,27.7,24.1,30.15,ESE,113,0.0,0.0,86,0.00,,,0.06,Wunderground v.1.15,2013-02-25 03:34:00,
2013-02-24 21:36:00,27.6,24.0,30.15,ESE,113,0.0,0.0,86,0.00,,,0.06,Wunderground v.1.15,2013-02-25 03:36:00,
2013-02-24 21:38:00,27.4,23.8,30.15,ESE,113,0.0,0.0,86,0.00,,,0.06,Wunderground v.1.15,2013-02-25 03:38:00,
2013-02-24 21:39:00,27.4,23.8,30.15,ESE,113,0.0,0.0,86,0.00,,,0.06,Wunderground v.1.15,2013-02-25 03:39:00,
2013-02-24 21:41:00,27.2,23.6,30.15,ESE,113,0.0,0.0,86,0.00,,,0.06,Wunderground v.1.15,2013-02-25 03:41:00,
2013-02-24 21:43:00,27.1,23.5,30.15,ESE,113,0.0,0.0,86,0.00,,,0.06,Wunderground v.1.15,2013-02-25 03:43:00,
2013-02-24 21:44:00,27.2,23.8,30.15,ESE,113,0.0,0.0,87,0.00,,,0.06,Wunderground v.1.15,2013-02-25 03:44:00,
2013-02-24 21:46:00,27.2,23.8,30.15,ESE,113,0.0,0.0,87,0.00,,,0.06,Wunderground v.1.15,2013-02-25 03:46:00,
2013-02-24 21:47:00,27.2,23.8,30.15,ESE,113,0.0,0.0,87,0.00,,,0.06,Wunderground v.1.15,2013-02-25 03:47:00,
2013-02-24 21:53:00,27.1,23.7,30.15,ESE,113,0.0,0.0,87,0.00,,,0.06,Wunderground v.1.15,2013-02-25 03:53:00,
2013-02-24 21:54:00,27.0,23.6,30.15,ESE,103,0.0,0.0,87,0.00,,,0.06,Wunderground v.1.15,2013-02-25 03:54:00,
2013-02-24 21:56:00,27.1,24.0,30.15,ENE,71,0.0,0.0,88,0.00,,,0.06,Wunderground v.1.15,2013-02-25 03:56:00,
2013-02-24 21:59:00,27.3,24.2,30.15,East,85,0.0,0.0,88,0.00,,,0.06,Wunderground v.1.15,2013-02-25 03:59:00,
2013-02-24 22:01:00,27.5,24.4,30.15,East,85,0.0,0.0,88,0.00,,,0.06,Wunderground v.1.15,2013-02-25 04:01:00,
2013-02-24 22:06:00,28.4,25.6,30.14,ESE,113,0.0,0.0,89,0.00,,,0.06,Wunderground v.1.15,2013-02-25 04:06:00,
2013-02-24 22:09:00,28.6,25.8,30.14,ESE,122,0.0,0.0,89,0.00,,,0.06,Wunderground v.1.15,2013-02-25 04:09:00,
2013-02-24 22:10:00,28.8,26.0,30.14,ESE,109,0.0,0.0,89,0.00,,,0.06,Wunderground v.1.15,2013-02-25 04:10:00,
2013-02-24 22:11:00,28.9,26.1,30.14,ESE,118,0.0,0.0,89,0.00,,,0.06,Wunderground v.1.15,2013-02-25 04:11:00,
2013-02-24 22:14:00,28.9,25.8,30.14,ESE,119,0.0,0.0,88,0.00,,,0.06,Wunderground v.1.15,2013-02-25 04:14:00,
2013-02-24 22:19:00,29.0,25.9,30.14,ESE,103,0.0,0.0,88,0.00,,,0.06,Wunderground v.1.15,2013-02-25 04:19:00,
2013-02-24 22:21:00,29.0,25.9,30.14,SE,124,0.0,0.0,88,0.00,,,0.06,Wunderground v.1.15,2013-02-25 04:21:00,
2013-02-24 22:22:00,29.1,26.0,30.14,SE,125,0.0,0.0,88,0.00,,,0.06,Wunderground v.1.15,2013-02-25 04:22:00,
2013-02-24 22:23:00,29.1,26.0,30.14,SE,125,0.0,0.0,88,0.00,,,0.06,Wunderground v.1.15,2013-02-25 04:23:00,
2013-02-24 22:27:00,29.1,26.0,30.14,ESE,113,0.0,0.0,88,0.00,,,0.06,Wunderground v.1.15,2013-02-25 04:27:00,
2013-02-24 22:28:00,29.1,26.0,30.14,East,90,0.0,0.0,88,0.00,,,0.06,Wunderground v.1.15,2013-02-25 04:28:00,
2013-02-24 22:31:00,29.1,26.0,30.14,ESE,112,0.0,0.0,88,0.00,,,0.06,Wunderground v.1.15,2013-02-25 04:31:00,
2013-02-24 22:33:00,29.1,26.0,30.14,ESE,109,0.0,0.0,88,0.00,,,0.06,Wunderground v.1.15,2013-02-25 04:33:00,
2013-02-24 22:34:00,29.1,26.0,30.14,ESE,117,0.0,0.0,88,0.00,,,0.06,Wunderground v.1.15,2013-02-25 04:34:00,
2013-02-24 22:35:00,29.1,26.0,30.14,ESE,116,0.0,0.0,88,0.00,,,0.06,Wunderground v.1.15,2013-02-25 04:35:00,
2013-02-24 22:38:00,29.2,26.1,30.14,ESE,118,0.0,0.0,88,0.00,,,0.06,Wunderground v.1.15,2013-02-25 04:38:00,
2013-02-24 22:40:00,29.3,26.2,30.14,ESE,113,0.0,0.0,88,0.00,,,0.06,Wunderground v.1.15,2013-02-25 04:40:00,
2013-02-24 22:43:00,29.3,26.2,30.14,ESE,117,0.0,0.0,88,0.00,,,0.06,Wunderground v.1.15,2013-02-25 04:43:00,
2013-02-24 22:44:00,29.3,26.2,30.14,ESE,117,0.0,0.0,88,0.00,,,0.06,Wunderground v.1.15,2013-02-25 04:44:00,
2013-02-24 22:48:00,29.2,26.1,30.14,East,101,0.0,0.0,88,0.00,,,0.06,Wunderground v.1.15,2013-02-25 04:48:00,
2013-02-24 22:50:00,29.3,26.2,30.14,East,100,0.0,0.0,88,0.00,,,0.06,Wunderground v.1.15,2013-02-25 04:50:00,
2013-02-24 22:52:00,29.2,26.1,30.14,SE,133,0.0,0.0,88,0.00,,,0.06,Wunderground v.1.15,2013-02-25 04:52:00,
2013-02-24 22:53:00,29.2,25.8,30.14,ESE,110,0.0,0.0,87,0.00,,,0.06,Wunderground v.1.15,2013-02-25 04:53:00,
2013-02-24 22:55:00,29.2,26.1,30.14,SE,132,0.0,0.0,88,0.00,,,0.06,Wunderground v.1.15,2013-02-25 04:55:00,
2013-02-24 23:00:00,29.1,26.0,30.14,ESE,122,0.0,0.0,88,0.00,,,0.06,Wunderground v.1.15,2013-02-25 05:00:00,
2013-02-24 23:02:00,29.1,26.0,30.14,ESE,122,0.0,0.0,88,0.00,,,0.06,Wunderground v.1.15,2013-02-25 05:02:00,
2013-02-24 23:03:00,29.1,26.0,30.14,ESE,122,0.0,0.0,88,0.00,,,0.06,Wunderground v.1.15,2013-02-25 05:03:00,
2013-02-24 23:04:00,29.0,25.9,30.14,ESE,122,0.0,0.0,88,0.00,,,0.06,Wunderground v.1.15,2013-02-25 05:04:00,
2013-02-24 23:07:00,29.0,25.9,30.14,ESE,122,0.0,0.0,88,0.00,,,0.06,Wunderground v.1.15,2013-02-25 05:07:00,
2013-02-24 23:08:00,29.0,25.9,30.14,ESE,122,0.0,0.0,88,0.00,,,0.06,Wunderground v.1.15,2013-02-25 05:08:00,
2013-02-24 23:09:00,28.9,25.8,30.14,ESE,122,0.0,0.0,88,0.00,,,0.06,Wunderground v.1.15,2013-02-25 05:09:00,
2013-02-24 23:14:00,28.8,25.7,30.15,ESE,122,0.0,0.0,88,0.00,,,0.06,Wunderground v.1.15,2013-02-25 05:14:00,
2013-02-24 23:15:00,28.7,25.6,30.15,ESE,122,0.0,0.0,88,0.00,,,0.06,Wunderground v.1.15,2013-02-25 05:15:00,
2013-02-24 23:17:00,28.6,25.5,30.14,ESE,122,0.0,0.0,88,0.00,,,0.06,Wunderground v.1.15,2013-02-25 05:17:00,
2013-02-24 23:19:00,28.6,25.5,30.14,ESE,122,0.0,0.0,88,0.00,,,0.06,Wunderground v.1.15,2013-02-25 05:19:00,
2013-02-24 23:21:00,28.5,25.4,30.14,ESE,122,0.0,0.0,88,0.00,,,0.06,Wunderground v.1.15,2013-02-25 05:21:00,
2013-02-24 23:23:00,28.5,25.4,30.14,ESE,122,0.0,0.0,88,0.00,,,0.06,Wunderground v.1.15,2013-02-25 05:23:00,
2013-02-24 23:24:00,28.4,25.3,30.14,ESE,122,0.0,0.0,88,0.00,,,0.06,Wunderground v.1.15,2013-02-25 05:24:00,
2013-02-24 23:26:00,28.3,25.2,30.14,ESE,122,0.0,0.0,88,0.00,,,0.06,Wunderground v.1.15,2013-02-25 05:26:00,
2013-02-24 23:27:00,28.2,25.1,30.14,ESE,122,0.0,0.0,88,0.00,,,0.06,Wunderground v.1.15,2013-02-25 05:27:00,
2013-02-24 23:31:00,28.1,25.0,30.14,ESE,122,0.0,0.0,88,0.00,,,0.06,Wunderground v.1.15,2013-02-25 05:31:00,
2013-02-24 23:32:00,28.1,25.0,30.14,ESE,122,0.0,0.0,88,0.00,,,0.06,Wunderground v.1.15,2013-02-25 05:32:00,
2013-02-24 23:33:00,28.0,24.9,30.14,ESE,123,0.0,0.0,88,0.00,,,0.06,Wunderground v.1.15,2013-02-25 05:33:00,
2013-02-24 23:35:00,27.8,24.7,30.14,ESE,122,0.0,0.0,88,0.00,,,0.06,Wunderground v.1.15,2013-02-25 05:35:00,
2013-02-24 23:36:00,27.7,24.6,30.14,ESE,122,0.0,0.0,88,0.00,,,0.06,Wunderground v.1.15,2013-02-25 05:36:00,
2013-02-24 23:38:00,27.5,24.4,30.14,ESE,122,0.0,0.0,88,0.00,,,0.06,Wunderground v.1.15,2013-02-25 05:38:00,
2013-02-24 23:40:00,27.3,24.2,30.14,East,85,0.0,0.0,88,0.00,,,0.06,Wunderground v.1.15,2013-02-25 05:40:00,
2013-02-24 23:42:00,26.9,23.8,30.14,East,85,0.0,0.0,88,0.00,,,0.06,Wunderground v.1.15,2013-02-25 05:42:00,
2013-02-24 23:43:00,26.7,23.4,30.14,East,84,0.0,0.0,87,0.00,,,0.06,Wunderground v.1.15,2013-02-25 05:43:00,
2013-02-24 23:45:00,26.4,23.3,30.14,East,84,0.0,0.0,88,0.00,,,0.06,Wunderground v.1.15,2013-02-25 05:45:00,
2013-02-24 23:46:00,26.3,23.2,30.14,East,85,0.0,0.0,88,0.00,,,0.06,Wunderground v.1.15,2013-02-25 05:46:00,
2013-02-24 23:47:00,26.3,23.2,30.14,East,84,0.0,0.0,88,0.00,,,0.06,Wunderground v.1.15,2013-02-25 05:47:00,
2013-02-24 23:48:00,26.2,23.1,30.14,East,85,0.0,0.0,88,0.00,,,0.06,Wunderground v.1.15,2013-02-25 05:48:00,
2013-02-24 23:50:00,26.3,23.5,30.14,East,84,0.0,0.0,89,0.00,,,0.06,Wunderground v.1.15,2013-02-25 05:50:00,
2013-02-24 23:55:00,26.7,24.2,30.14,East,85,0.0,0.0,90,0.00,,,0.06,Wunderground v.1.15,2013-02-25 05:55:00,
2013-02-24 23:56:00,26.7,24.2,30.14,East,84,0.0,0.0,90,0.00,,,0.06,Wunderground v.1.15,2013-02-25 05:56:00,
2013-02-24 23:57:00,26.7,24.2,30.14,East,84,0.0,0.0,90,0.00,,,0.06,Wunderground v.1.15,2013-02-25 05:57:00,